<?xml version='1.0' encoding='UTF-8'?><gpx version="1.1" creator="JPX - https://github.com/jenetics/jpx" xmlns="http://www.topografix.com/GPX/1/1"><trk><trkseg><trkpt lat="45.7804213" lon="9.9324337"><ele>438.0</ele><time>2026-04-18T10:14:13.931Z</time></trkpt><trkpt lat="45.7803037" lon="9.932394"><ele>438.0</ele><time>2026-04-18T10:14:14.932Z</time></trkpt><trkpt lat="45.7801689" lon="9.9324308"><ele>438.0</ele><time>2026-04-18T10:14:15.932Z</time></trkpt><trkpt lat="45.7800381" lon="9.9324515"><ele>438.0</ele><time>2026-04-18T10:14:16.931Z</time></trkpt><trkpt lat="45.7799125" lon="9.932462"><ele>437.75</ele><time>2026-04-18T10:14:17.932Z</time></trkpt><trkpt lat="45.7797907" lon="9.9325018"><ele>437.5</ele><time>2026-04-18T10:14:18.932Z</time></trkpt><trkpt lat="45.7796748" lon="9.9324842"><ele>437.25</ele><time>2026-04-18T10:14:19.932Z</time></trkpt><trkpt lat="45.7795423" lon="9.9325324"><ele>437.0</ele><time>2026-04-18T10:14:20.931Z</time></trkpt><trkpt lat="45.7794218" lon="9.9325338"><ele>430.0</ele><time>2026-04-18T10:14:21.932Z</time></trkpt><trkpt lat="45.7793052" lon="9.9325609"><ele>423.0</ele><time>2026-04-18T10:14:22.931Z</time></trkpt><trkpt lat="45.7791801" lon="9.9325898"><ele>416.0</ele><time>2026-04-18T10:14:23.932Z</time></trkpt><trkpt lat="45.7790591" lon="9.9325944"><ele>409.0</ele><time>2026-04-18T10:14:24.932Z</time></trkpt><trkpt lat="45.7789412" lon="9.9326066"><ele>409.0</ele><time>2026-04-18T10:14:25.931Z</time></trkpt><trkpt lat="45.7788326" lon="9.9326214"><ele>409.0</ele><time>2026-04-18T10:14:26.932Z</time></trkpt><trkpt lat="45.7787094" lon="9.9326044"><ele>409.0</ele><time>2026-04-18T10:14:27.933Z</time></trkpt><trkpt lat="45.7785692" lon="9.9325924"><ele>409.0</ele><time>2026-04-18T10:14:28.932Z</time></trkpt><trkpt lat="45.7784364" lon="9.932511"><ele>411.25</ele><time>2026-04-18T10:14:29.932Z</time></trkpt><trkpt lat="45.7783176" lon="9.932451"><ele>413.5</ele><time>2026-04-18T10:14:30.931Z</time></trkpt><trkpt lat="45.7781992" lon="9.9324038"><ele>415.75</ele><time>2026-04-18T10:14:31.931Z</time></trkpt><trkpt lat="45.7780954" lon="9.9323387"><ele>418.0</ele><time>2026-04-18T10:14:32.933Z</time></trkpt><trkpt lat="45.7779774" lon="9.9322434"><ele>418.0</ele><time>2026-04-18T10:14:33.931Z</time></trkpt><trkpt lat="45.7778969" lon="9.9321791"><ele>418.0</ele><time>2026-04-18T10:14:34.932Z</time></trkpt><trkpt lat="45.7778241" lon="9.9320939"><ele>418.0</ele><time>2026-04-18T10:14:35.931Z</time></trkpt><trkpt lat="45.777768" lon="9.9320014"><ele>418.0</ele><time>2026-04-18T10:14:36.932Z</time></trkpt><trkpt lat="45.7777109" lon="9.9319359"><ele>418.0</ele><time>2026-04-18T10:14:37.932Z</time></trkpt><trkpt lat="45.7776163" lon="9.9318243"><ele>418.0</ele><time>2026-04-18T10:14:39.932Z</time></trkpt><trkpt lat="45.777524" lon="9.9319077"><ele>418.0</ele><time>2026-04-18T10:14:41.931Z</time></trkpt><trkpt lat="45.777505" lon="9.9320406"><ele>418.0</ele><time>2026-04-18T10:14:43.933Z</time></trkpt><trkpt lat="45.7776013" lon="9.932113"><ele>418.0</ele><time>2026-04-18T10:14:44.931Z</time></trkpt><trkpt lat="45.7776768" lon="9.9321953"><ele>418.0</ele><time>2026-04-18T10:14:45.931Z</time></trkpt><trkpt lat="45.77776" lon="9.932287"><ele>418.0</ele><time>2026-04-18T10:14:46.932Z</time></trkpt><trkpt lat="45.7778435" lon="9.9324007"><ele>418.0</ele><time>2026-04-18T10:14:47.931Z</time></trkpt><trkpt lat="45.777919" lon="9.9325019"><ele>418.0</ele><time>2026-04-18T10:14:48.931Z</time></trkpt><trkpt lat="45.7779913" lon="9.9326787"><ele>418.0</ele><time>2026-04-18T10:14:49.931Z</time></trkpt><trkpt lat="45.7780694" lon="9.9328105"><ele>413.75</ele><time>2026-04-18T10:14:50.933Z</time></trkpt><trkpt lat="45.7781453" lon="9.932948"><ele>409.5</ele><time>2026-04-18T10:14:51.932Z</time></trkpt><trkpt lat="45.7782339" lon="9.9330782"><ele>405.25</ele><time>2026-04-18T10:14:52.932Z</time></trkpt><trkpt lat="45.7783017" lon="9.9332135"><ele>401.0</ele><time>2026-04-18T10:14:53.931Z</time></trkpt><trkpt lat="45.7783639" lon="9.9333437"><ele>398.0</ele><time>2026-04-18T10:14:54.931Z</time></trkpt><trkpt lat="45.7784508" lon="9.9334357"><ele>395.0</ele><time>2026-04-18T10:14:55.932Z</time></trkpt><trkpt lat="45.7785353" lon="9.9335367"><ele>392.0</ele><time>2026-04-18T10:14:56.932Z</time></trkpt><trkpt lat="45.7786124" lon="9.9335386"><ele>389.0</ele><time>2026-04-18T10:14:57.931Z</time></trkpt><trkpt lat="45.7786776" lon="9.9335544"><ele>386.0</ele><time>2026-04-18T10:14:58.931Z</time></trkpt><trkpt lat="45.7787663" lon="9.9335695"><ele>385.99999999999994</ele><time>2026-04-18T10:15:00.932Z</time></trkpt><trkpt lat="45.7788333" lon="9.9335662"><ele>386.0</ele><time>2026-04-18T10:15:02.932Z</time></trkpt><trkpt lat="45.7788776" lon="9.9336686"><ele>386.0</ele><time>2026-04-18T10:15:04.932Z</time></trkpt><trkpt lat="45.7788257" lon="9.9337967"><ele>386.0</ele><time>2026-04-18T10:15:07.933Z</time></trkpt><trkpt lat="45.7787549" lon="9.9338274"><ele>385.99999999999994</ele><time>2026-04-18T10:15:08.933Z</time></trkpt><trkpt lat="45.7786612" lon="9.9337991"><ele>386.0</ele><time>2026-04-18T10:15:09.932Z</time></trkpt><trkpt lat="45.7785516" lon="9.9338042"><ele>385.5</ele><time>2026-04-18T10:15:10.931Z</time></trkpt><trkpt lat="45.7784594" lon="9.9338153"><ele>385.0</ele><time>2026-04-18T10:15:11.932Z</time></trkpt><trkpt lat="45.7783488" lon="9.9337654"><ele>384.5</ele><time>2026-04-18T10:15:12.932Z</time></trkpt><trkpt lat="45.7782376" lon="9.9337021"><ele>384.0</ele><time>2026-04-18T10:15:13.932Z</time></trkpt><trkpt lat="45.7781449" lon="9.93358"><ele>384.0</ele><time>2026-04-18T10:15:14.932Z</time></trkpt><trkpt lat="45.7780507" lon="9.9334433"><ele>384.0</ele><time>2026-04-18T10:15:15.932Z</time></trkpt><trkpt lat="45.7779613" lon="9.9333267"><ele>384.0</ele><time>2026-04-18T10:15:16.931Z</time></trkpt><trkpt lat="45.7778672" lon="9.9332183"><ele>384.0</ele><time>2026-04-18T10:15:17.932Z</time></trkpt><trkpt lat="45.7777664" lon="9.9331268"><ele>384.66666666666663</ele><time>2026-04-18T10:15:18.931Z</time></trkpt><trkpt lat="45.777652" lon="9.9330314"><ele>385.3333333333333</ele><time>2026-04-18T10:15:19.931Z</time></trkpt><trkpt lat="45.7774942" lon="9.9329456"><ele>386.0</ele><time>2026-04-18T10:15:20.931Z</time></trkpt><trkpt lat="45.7773475" lon="9.9328596"><ele>386.0</ele><time>2026-04-18T10:15:21.931Z</time></trkpt><trkpt lat="45.7771251" lon="9.9328336"><ele>386.0</ele><time>2026-04-18T10:15:22.932Z</time></trkpt><trkpt lat="45.7769561" lon="9.9327739"><ele>386.0</ele><time>2026-04-18T10:15:23.931Z</time></trkpt><trkpt lat="45.7767713" lon="9.9327145"><ele>387.0</ele><time>2026-04-18T10:15:24.931Z</time></trkpt><trkpt lat="45.7766283" lon="9.9326652"><ele>388.0</ele><time>2026-04-18T10:15:25.932Z</time></trkpt><trkpt lat="45.776489" lon="9.9325748"><ele>389.0</ele><time>2026-04-18T10:15:27.931Z</time></trkpt><trkpt lat="45.7763966" lon="9.9325162"><ele>390.0</ele><time>2026-04-18T10:15:28.933Z</time></trkpt><trkpt lat="45.7763258" lon="9.9324418"><ele>390.0</ele><time>2026-04-18T10:15:29.932Z</time></trkpt><trkpt lat="45.7762611" lon="9.9323812"><ele>390.0</ele><time>2026-04-18T10:15:30.932Z</time></trkpt><trkpt lat="45.7762033" lon="9.9322554"><ele>390.0</ele><time>2026-04-18T10:15:32.931Z</time></trkpt><trkpt lat="45.7760989" lon="9.9322469"><ele>390.0</ele><time>2026-04-18T10:15:34.932Z</time></trkpt><trkpt lat="45.7760276" lon="9.932263"><ele>390.0</ele><time>2026-04-18T10:15:36.931Z</time></trkpt><trkpt lat="45.776006" lon="9.9324124"><ele>386.6</ele><time>2026-04-18T10:15:39.932Z</time></trkpt><trkpt lat="45.7760742" lon="9.9325982"><ele>383.2</ele><time>2026-04-18T10:15:40.932Z</time></trkpt><trkpt lat="45.7761251" lon="9.9327431"><ele>379.79999999999995</ele><time>2026-04-18T10:15:41.931Z</time></trkpt><trkpt lat="45.7761562" lon="9.9328493"><ele>376.4</ele><time>2026-04-18T10:15:42.931Z</time></trkpt><trkpt lat="45.7761892" lon="9.9329599"><ele>373.0</ele><time>2026-04-18T10:15:43.932Z</time></trkpt><trkpt lat="45.7762341" lon="9.9330636"><ele>373.0</ele><time>2026-04-18T10:15:44.932Z</time></trkpt><trkpt lat="45.7762617" lon="9.9331594"><ele>373.0</ele><time>2026-04-18T10:15:45.932Z</time></trkpt><trkpt lat="45.7763039" lon="9.9333237"><ele>373.0</ele><time>2026-04-18T10:15:46.932Z</time></trkpt><trkpt lat="45.7763676" lon="9.9334933"><ele>373.0</ele><time>2026-04-18T10:15:47.932Z</time></trkpt><trkpt lat="45.7764535" lon="9.9336881"><ele>369.5</ele><time>2026-04-18T10:15:48.932Z</time></trkpt><trkpt lat="45.7765304" lon="9.9338514"><ele>366.0</ele><time>2026-04-18T10:15:49.933Z</time></trkpt><trkpt lat="45.7766163" lon="9.9339968"><ele>362.5</ele><time>2026-04-18T10:15:50.932Z</time></trkpt><trkpt lat="45.7767144" lon="9.9341456"><ele>359.0</ele><time>2026-04-18T10:15:51.931Z</time></trkpt><trkpt lat="45.7768173" lon="9.9342775"><ele>358.0</ele><time>2026-04-18T10:15:52.931Z</time></trkpt><trkpt lat="45.776929" lon="9.9344419"><ele>357.0</ele><time>2026-04-18T10:15:53.932Z</time></trkpt><trkpt lat="45.7772179" lon="9.9345687"><ele>357.0</ele><time>2026-04-18T10:15:54.932Z</time></trkpt><trkpt lat="45.7774178" lon="9.9347122"><ele>357.0</ele><time>2026-04-18T10:15:55.931Z</time></trkpt><trkpt lat="45.7776302" lon="9.9348411"><ele>358.3333333333333</ele><time>2026-04-18T10:15:56.932Z</time></trkpt><trkpt lat="45.7778149" lon="9.9350014"><ele>359.66666666666663</ele><time>2026-04-18T10:15:57.932Z</time></trkpt><trkpt lat="45.7779721" lon="9.9351127"><ele>361.0</ele><time>2026-04-18T10:15:58.931Z</time></trkpt><trkpt lat="45.7780891" lon="9.9352123"><ele>356.75</ele><time>2026-04-18T10:15:59.931Z</time></trkpt><trkpt lat="45.7782314" lon="9.9353055"><ele>352.5</ele><time>2026-04-18T10:16:00.932Z</time></trkpt><trkpt lat="45.7783519" lon="9.9353046"><ele>348.25</ele><time>2026-04-18T10:16:01.932Z</time></trkpt><trkpt lat="45.7784814" lon="9.9353503"><ele>344.0</ele><time>2026-04-18T10:16:02.931Z</time></trkpt><trkpt lat="45.7786496" lon="9.935253"><ele>342.33333333333337</ele><time>2026-04-18T10:16:03.931Z</time></trkpt><trkpt lat="45.7787985" lon="9.9352309"><ele>340.6666666666667</ele><time>2026-04-18T10:16:04.932Z</time></trkpt><trkpt lat="45.7789662" lon="9.9352436"><ele>339.0</ele><time>2026-04-18T10:16:05.931Z</time></trkpt><trkpt lat="45.779109" lon="9.9352453"><ele>339.0</ele><time>2026-04-18T10:16:06.932Z</time></trkpt><trkpt lat="45.7792411" lon="9.9352697"><ele>339.0</ele><time>2026-04-18T10:16:07.931Z</time></trkpt><trkpt lat="45.7793832" lon="9.9352797"><ele>339.0</ele><time>2026-04-18T10:16:08.932Z</time></trkpt><trkpt lat="45.7794965" lon="9.935261"><ele>339.0</ele><time>2026-04-18T10:16:09.932Z</time></trkpt><trkpt lat="45.7796125" lon="9.9352643"><ele>338.0</ele><time>2026-04-18T10:16:10.932Z</time></trkpt><trkpt lat="45.7797413" lon="9.9352291"><ele>337.0</ele><time>2026-04-18T10:16:11.931Z</time></trkpt><trkpt lat="45.7798484" lon="9.9352111"><ele>336.0</ele><time>2026-04-18T10:16:12.931Z</time></trkpt><trkpt lat="45.7799718" lon="9.9350774"><ele>335.0</ele><time>2026-04-18T10:16:13.931Z</time></trkpt><trkpt lat="45.7801" lon="9.9350549"><ele>335.5</ele><time>2026-04-18T10:16:14.931Z</time></trkpt><trkpt lat="45.7802262" lon="9.9350406"><ele>336.0</ele><time>2026-04-18T10:16:15.932Z</time></trkpt><trkpt lat="45.7803536" lon="9.9350677"><ele>336.5</ele><time>2026-04-18T10:16:16.932Z</time></trkpt><trkpt lat="45.7804526" lon="9.9351376"><ele>337.0</ele><time>2026-04-18T10:16:17.932Z</time></trkpt><trkpt lat="45.7805637" lon="9.9352857"><ele>337.0</ele><time>2026-04-18T10:16:18.931Z</time></trkpt><trkpt lat="45.7806644" lon="9.9354033"><ele>337.0</ele><time>2026-04-18T10:16:19.931Z</time></trkpt><trkpt lat="45.7807567" lon="9.9355407"><ele>337.0</ele><time>2026-04-18T10:16:20.933Z</time></trkpt><trkpt lat="45.7808663" lon="9.9357265"><ele>337.0</ele><time>2026-04-18T10:16:21.931Z</time></trkpt><trkpt lat="45.7810097" lon="9.9359377"><ele>338.0</ele><time>2026-04-18T10:16:22.932Z</time></trkpt><trkpt lat="45.78118" lon="9.9361584"><ele>339.0</ele><time>2026-04-18T10:16:23.933Z</time></trkpt><trkpt lat="45.781339" lon="9.9363881"><ele>339.0</ele><time>2026-04-18T10:16:24.933Z</time></trkpt><trkpt lat="45.7815231" lon="9.9366317"><ele>339.0</ele><time>2026-04-18T10:16:25.932Z</time></trkpt><trkpt lat="45.7817503" lon="9.9368775"><ele>339.5</ele><time>2026-04-18T10:16:26.931Z</time></trkpt><trkpt lat="45.7819528" lon="9.937072"><ele>340.0</ele><time>2026-04-18T10:16:27.931Z</time></trkpt><trkpt lat="45.7821482" lon="9.937268"><ele>340.0</ele><time>2026-04-18T10:16:28.931Z</time></trkpt><trkpt lat="45.7823471" lon="9.9374514"><ele>340.0</ele><time>2026-04-18T10:16:29.932Z</time></trkpt><trkpt lat="45.7825528" lon="9.9376063"><ele>339.66666666666663</ele><time>2026-04-18T10:16:30.931Z</time></trkpt><trkpt lat="45.7827421" lon="9.9377264"><ele>339.3333333333333</ele><time>2026-04-18T10:16:31.932Z</time></trkpt><trkpt lat="45.7829258" lon="9.9377947"><ele>339.0</ele><time>2026-04-18T10:16:32.932Z</time></trkpt><trkpt lat="45.7830987" lon="9.937872"><ele>339.0</ele><time>2026-04-18T10:16:33.931Z</time></trkpt><trkpt lat="45.7832904" lon="9.9379896"><ele>339.0</ele><time>2026-04-18T10:16:34.931Z</time></trkpt><trkpt lat="45.7834625" lon="9.9381443"><ele>339.0</ele><time>2026-04-18T10:16:35.932Z</time></trkpt><trkpt lat="45.7836475" lon="9.9382451"><ele>339.5</ele><time>2026-04-18T10:16:36.932Z</time></trkpt><trkpt lat="45.7838527" lon="9.9384487"><ele>340.0</ele><time>2026-04-18T10:16:37.931Z</time></trkpt><trkpt lat="45.7840281" lon="9.9387101"><ele>340.0</ele><time>2026-04-18T10:16:38.931Z</time></trkpt><trkpt lat="45.7842144" lon="9.9389672"><ele>340.0</ele><time>2026-04-18T10:16:39.932Z</time></trkpt><trkpt lat="45.7843866" lon="9.9392434"><ele>341.5</ele><time>2026-04-18T10:16:40.931Z</time></trkpt><trkpt lat="45.7845269" lon="9.9395146"><ele>343.0</ele><time>2026-04-18T10:16:41.932Z</time></trkpt><trkpt lat="45.7846818" lon="9.9397613"><ele>343.0</ele><time>2026-04-18T10:16:42.931Z</time></trkpt><trkpt lat="45.7848359" lon="9.9400135"><ele>343.0</ele><time>2026-04-18T10:16:43.932Z</time></trkpt><trkpt lat="45.7849994" lon="9.9402543"><ele>341.5</ele><time>2026-04-18T10:16:44.933Z</time></trkpt><trkpt lat="45.785176" lon="9.9404965"><ele>340.0</ele><time>2026-04-18T10:16:45.932Z</time></trkpt><trkpt lat="45.7853395" lon="9.940747"><ele>343.0</ele><time>2026-04-18T10:16:46.932Z</time></trkpt><trkpt lat="45.7854216" lon="9.9409479"><ele>346.0</ele><time>2026-04-18T10:16:47.931Z</time></trkpt><trkpt lat="45.7855132" lon="9.9411987"><ele>349.0</ele><time>2026-04-18T10:16:48.932Z</time></trkpt><trkpt lat="45.7855706" lon="9.9414559"><ele>347.0</ele><time>2026-04-18T10:16:49.932Z</time></trkpt><trkpt lat="45.7856323" lon="9.9417445"><ele>345.0</ele><time>2026-04-18T10:16:50.932Z</time></trkpt><trkpt lat="45.7855615" lon="9.9420012"><ele>343.0</ele><time>2026-04-18T10:16:51.931Z</time></trkpt><trkpt lat="45.7855503" lon="9.942273"><ele>343.0</ele><time>2026-04-18T10:16:52.931Z</time></trkpt><trkpt lat="45.7855112" lon="9.9425316"><ele>343.0</ele><time>2026-04-18T10:16:53.931Z</time></trkpt><trkpt lat="45.7854969" lon="9.9427686"><ele>343.0</ele><time>2026-04-18T10:16:54.932Z</time></trkpt><trkpt lat="45.7855051" lon="9.9429857"><ele>342.75</ele><time>2026-04-18T10:16:55.932Z</time></trkpt><trkpt lat="45.7855341" lon="9.943169"><ele>342.5</ele><time>2026-04-18T10:16:56.932Z</time></trkpt><trkpt lat="45.7855596" lon="9.9433292"><ele>342.25</ele><time>2026-04-18T10:16:57.931Z</time></trkpt><trkpt lat="45.7855814" lon="9.9434714"><ele>342.0</ele><time>2026-04-18T10:16:58.932Z</time></trkpt><trkpt lat="45.7856005" lon="9.9436402"><ele>341.25</ele><time>2026-04-18T10:17:00.931Z</time></trkpt><trkpt lat="45.7856599" lon="9.9439705"><ele>340.5</ele><time>2026-04-18T10:17:15.932Z</time></trkpt><trkpt lat="45.7856977" lon="9.9440857"><ele>339.75</ele><time>2026-04-18T10:17:16.932Z</time></trkpt><trkpt lat="45.7857575" lon="9.9442214"><ele>339.0</ele><time>2026-04-18T10:17:17.932Z</time></trkpt><trkpt lat="45.7858604" lon="9.9444245"><ele>339.0</ele><time>2026-04-18T10:17:18.932Z</time></trkpt><trkpt lat="45.7859488" lon="9.9445854"><ele>339.0</ele><time>2026-04-18T10:17:19.931Z</time></trkpt><trkpt lat="45.7860124" lon="9.9447326"><ele>339.0</ele><time>2026-04-18T10:17:20.932Z</time></trkpt><trkpt lat="45.7861654" lon="9.9449528"><ele>338.0</ele><time>2026-04-18T10:17:21.932Z</time></trkpt><trkpt lat="45.7862672" lon="9.9451137"><ele>337.0</ele><time>2026-04-18T10:17:22.931Z</time></trkpt><trkpt lat="45.7863867" lon="9.9452767"><ele>336.0</ele><time>2026-04-18T10:17:23.932Z</time></trkpt><trkpt lat="45.7865052" lon="9.9454435"><ele>336.0</ele><time>2026-04-18T10:17:24.931Z</time></trkpt><trkpt lat="45.786641" lon="9.9455926"><ele>336.0</ele><time>2026-04-18T10:17:25.932Z</time></trkpt><trkpt lat="45.7867874" lon="9.9457579"><ele>336.0</ele><time>2026-04-18T10:17:26.931Z</time></trkpt><trkpt lat="45.7869278" lon="9.9459149"><ele>336.0</ele><time>2026-04-18T10:17:27.933Z</time></trkpt><trkpt lat="45.7870643" lon="9.9460639"><ele>336.0</ele><time>2026-04-18T10:17:28.931Z</time></trkpt><trkpt lat="45.7871941" lon="9.9461968"><ele>336.0</ele><time>2026-04-18T10:17:29.931Z</time></trkpt><trkpt lat="45.7873406" lon="9.9463411"><ele>336.0</ele><time>2026-04-18T10:17:30.931Z</time></trkpt><trkpt lat="45.7874839" lon="9.946489"><ele>336.0</ele><time>2026-04-18T10:17:31.931Z</time></trkpt><trkpt lat="45.7876273" lon="9.9466429"><ele>336.0</ele><time>2026-04-18T10:17:32.932Z</time></trkpt><trkpt lat="45.7877583" lon="9.9467809"><ele>335.6666666666667</ele><time>2026-04-18T10:17:33.931Z</time></trkpt><trkpt lat="45.787887" lon="9.9469044"><ele>335.33333333333337</ele><time>2026-04-18T10:17:34.932Z</time></trkpt><trkpt lat="45.7880453" lon="9.9470295"><ele>335.0</ele><time>2026-04-18T10:17:35.931Z</time></trkpt><trkpt lat="45.7881984" lon="9.9471299"><ele>335.0</ele><time>2026-04-18T10:17:36.932Z</time></trkpt><trkpt lat="45.7883637" lon="9.9472305"><ele>335.0</ele><time>2026-04-18T10:17:37.931Z</time></trkpt><trkpt lat="45.7885226" lon="9.9473114"><ele>335.0</ele><time>2026-04-18T10:17:38.932Z</time></trkpt><trkpt lat="45.7886928" lon="9.9473778"><ele>335.33333333333337</ele><time>2026-04-18T10:17:39.932Z</time></trkpt><trkpt lat="45.7888472" lon="9.9474767"><ele>335.6666666666667</ele><time>2026-04-18T10:17:40.932Z</time></trkpt><trkpt lat="45.7890149" lon="9.9475617"><ele>336.0</ele><time>2026-04-18T10:17:41.932Z</time></trkpt><trkpt lat="45.789154" lon="9.9477096"><ele>336.0</ele><time>2026-04-18T10:17:42.932Z</time></trkpt><trkpt lat="45.7892918" lon="9.9477953"><ele>336.0</ele><time>2026-04-18T10:17:43.931Z</time></trkpt><trkpt lat="45.7893617" lon="9.9480938"><ele>336.0</ele><time>2026-04-18T10:17:44.932Z</time></trkpt><trkpt lat="45.789465" lon="9.9483021"><ele>338.6666666666667</ele><time>2026-04-18T10:17:45.932Z</time></trkpt><trkpt lat="45.7895431" lon="9.9485263"><ele>341.33333333333337</ele><time>2026-04-18T10:17:46.932Z</time></trkpt><trkpt lat="45.7896267" lon="9.9487451"><ele>344.0</ele><time>2026-04-18T10:17:47.931Z</time></trkpt><trkpt lat="45.7897047" lon="9.9489754"><ele>342.0</ele><time>2026-04-18T10:17:48.933Z</time></trkpt><trkpt lat="45.7897897" lon="9.9492111"><ele>340.0</ele><time>2026-04-18T10:17:49.932Z</time></trkpt><trkpt lat="45.7898752" lon="9.9494404"><ele>338.0</ele><time>2026-04-18T10:17:50.931Z</time></trkpt><trkpt lat="45.789959" lon="9.9496754"><ele>338.0</ele><time>2026-04-18T10:17:51.932Z</time></trkpt><trkpt lat="45.7900391" lon="9.9499155"><ele>338.0</ele><time>2026-04-18T10:17:52.931Z</time></trkpt><trkpt lat="45.7901171" lon="9.9501594"><ele>338.0</ele><time>2026-04-18T10:17:53.933Z</time></trkpt><trkpt lat="45.7902016" lon="9.9503697"><ele>338.0</ele><time>2026-04-18T10:17:54.932Z</time></trkpt><trkpt lat="45.7903016" lon="9.9505783"><ele>338.0</ele><time>2026-04-18T10:17:55.931Z</time></trkpt><trkpt lat="45.7903937" lon="9.950783"><ele>338.0</ele><time>2026-04-18T10:17:56.931Z</time></trkpt><trkpt lat="45.7904934" lon="9.9509948"><ele>338.0</ele><time>2026-04-18T10:17:57.931Z</time></trkpt><trkpt lat="45.7906192" lon="9.9511843"><ele>338.0</ele><time>2026-04-18T10:17:58.932Z</time></trkpt><trkpt lat="45.790723" lon="9.9513875"><ele>338.0</ele><time>2026-04-18T10:17:59.932Z</time></trkpt><trkpt lat="45.79085" lon="9.9515894"><ele>337.0</ele><time>2026-04-18T10:18:00.932Z</time></trkpt><trkpt lat="45.7909653" lon="9.9517959"><ele>336.0</ele><time>2026-04-18T10:18:01.932Z</time></trkpt><trkpt lat="45.7910416" lon="9.9520184"><ele>335.0</ele><time>2026-04-18T10:18:02.931Z</time></trkpt><trkpt lat="45.7911317" lon="9.9522603"><ele>339.33333333333337</ele><time>2026-04-18T10:18:03.931Z</time></trkpt><trkpt lat="45.7911886" lon="9.9525014"><ele>343.6666666666667</ele><time>2026-04-18T10:18:04.932Z</time></trkpt><trkpt lat="45.7911733" lon="9.9527746"><ele>348.0</ele><time>2026-04-18T10:18:05.932Z</time></trkpt><trkpt lat="45.7911774" lon="9.9530415"><ele>348.0</ele><time>2026-04-18T10:18:06.933Z</time></trkpt><trkpt lat="45.7911858" lon="9.9533142"><ele>348.0</ele><time>2026-04-18T10:18:07.932Z</time></trkpt><trkpt lat="45.7912031" lon="9.953592"><ele>348.0</ele><time>2026-04-18T10:18:08.931Z</time></trkpt><trkpt lat="45.791218" lon="9.9538447"><ele>347.0</ele><time>2026-04-18T10:18:09.932Z</time></trkpt><trkpt lat="45.7912382" lon="9.9540777"><ele>346.0</ele><time>2026-04-18T10:18:10.931Z</time></trkpt><trkpt lat="45.7912739" lon="9.9543178"><ele>345.0</ele><time>2026-04-18T10:18:11.932Z</time></trkpt><trkpt lat="45.7912967" lon="9.9545636"><ele>343.6666666666667</ele><time>2026-04-18T10:18:12.931Z</time></trkpt><trkpt lat="45.7913302" lon="9.9548038"><ele>342.33333333333337</ele><time>2026-04-18T10:18:13.931Z</time></trkpt><trkpt lat="45.7914781" lon="9.9550498"><ele>341.0</ele><time>2026-04-18T10:18:14.932Z</time></trkpt><trkpt lat="45.7915435" lon="9.9553049"><ele>339.5</ele><time>2026-04-18T10:18:15.931Z</time></trkpt><trkpt lat="45.7916804" lon="9.9556095"><ele>338.0</ele><time>2026-04-18T10:18:16.933Z</time></trkpt><trkpt lat="45.7917981" lon="9.9558789"><ele>341.0</ele><time>2026-04-18T10:18:17.932Z</time></trkpt><trkpt lat="45.7919131" lon="9.9561726"><ele>344.0</ele><time>2026-04-18T10:18:18.932Z</time></trkpt><trkpt lat="45.791995" lon="9.9564061"><ele>347.0</ele><time>2026-04-18T10:18:19.931Z</time></trkpt><trkpt lat="45.7921066" lon="9.9567168"><ele>347.0</ele><time>2026-04-18T10:18:20.931Z</time></trkpt><trkpt lat="45.7921959" lon="9.9570191"><ele>347.0</ele><time>2026-04-18T10:18:21.932Z</time></trkpt><trkpt lat="45.7922186" lon="9.9573206"><ele>347.0</ele><time>2026-04-18T10:18:22.932Z</time></trkpt><trkpt lat="45.7922107" lon="9.9576327"><ele>347.33333333333337</ele><time>2026-04-18T10:18:23.932Z</time></trkpt><trkpt lat="45.7921474" lon="9.9579352"><ele>347.6666666666667</ele><time>2026-04-18T10:18:24.932Z</time></trkpt><trkpt lat="45.7920715" lon="9.9582257"><ele>348.0</ele><time>2026-04-18T10:18:25.932Z</time></trkpt><trkpt lat="45.7920661" lon="9.9585154"><ele>348.0</ele><time>2026-04-18T10:18:26.932Z</time></trkpt><trkpt lat="45.792053" lon="9.9588027"><ele>348.0</ele><time>2026-04-18T10:18:27.932Z</time></trkpt><trkpt lat="45.7920204" lon="9.9590761"><ele>348.0</ele><time>2026-04-18T10:18:28.931Z</time></trkpt><trkpt lat="45.7919774" lon="9.9593256"><ele>349.6666666666667</ele><time>2026-04-18T10:18:29.931Z</time></trkpt><trkpt lat="45.7919179" lon="9.9595694"><ele>351.33333333333337</ele><time>2026-04-18T10:18:30.932Z</time></trkpt><trkpt lat="45.7918513" lon="9.9598136"><ele>353.0</ele><time>2026-04-18T10:18:31.931Z</time></trkpt><trkpt lat="45.7917394" lon="9.9600299"><ele>351.33333333333337</ele><time>2026-04-18T10:18:32.932Z</time></trkpt><trkpt lat="45.7916112" lon="9.9602765"><ele>349.6666666666667</ele><time>2026-04-18T10:18:33.931Z</time></trkpt><trkpt lat="45.7914941" lon="9.9604388"><ele>348.0</ele><time>2026-04-18T10:18:34.932Z</time></trkpt><trkpt lat="45.7913948" lon="9.9606279"><ele>348.0</ele><time>2026-04-18T10:18:35.931Z</time></trkpt><trkpt lat="45.791304" lon="9.9608065"><ele>348.0</ele><time>2026-04-18T10:18:36.931Z</time></trkpt><trkpt lat="45.7912014" lon="9.9609988"><ele>348.0</ele><time>2026-04-18T10:18:37.932Z</time></trkpt><trkpt lat="45.7910967" lon="9.9611876"><ele>345.6666666666667</ele><time>2026-04-18T10:18:38.933Z</time></trkpt><trkpt lat="45.7910013" lon="9.9613514"><ele>343.33333333333337</ele><time>2026-04-18T10:18:39.932Z</time></trkpt><trkpt lat="45.7909268" lon="9.9615782"><ele>341.0</ele><time>2026-04-18T10:18:40.932Z</time></trkpt><trkpt lat="45.790848" lon="9.9618095"><ele>341.0</ele><time>2026-04-18T10:18:41.932Z</time></trkpt><trkpt lat="45.7907836" lon="9.9620328"><ele>341.0</ele><time>2026-04-18T10:18:42.931Z</time></trkpt><trkpt lat="45.7907331" lon="9.9622799"><ele>341.0</ele><time>2026-04-18T10:18:43.931Z</time></trkpt><trkpt lat="45.7906824" lon="9.9625064"><ele>342.33333333333337</ele><time>2026-04-18T10:18:44.933Z</time></trkpt><trkpt lat="45.7906519" lon="9.9627393"><ele>343.6666666666667</ele><time>2026-04-18T10:18:45.932Z</time></trkpt><trkpt lat="45.7906336" lon="9.9629636"><ele>345.0</ele><time>2026-04-18T10:18:46.932Z</time></trkpt><trkpt lat="45.7906072" lon="9.9631998"><ele>345.0</ele><time>2026-04-18T10:18:47.932Z</time></trkpt><trkpt lat="45.7906044" lon="9.9634465"><ele>345.0</ele><time>2026-04-18T10:18:48.931Z</time></trkpt><trkpt lat="45.7905953" lon="9.9636443"><ele>345.0</ele><time>2026-04-18T10:18:49.932Z</time></trkpt><trkpt lat="45.790585" lon="9.9638774"><ele>345.0</ele><time>2026-04-18T10:18:50.932Z</time></trkpt><trkpt lat="45.7905962" lon="9.9640746"><ele>345.0</ele><time>2026-04-18T10:18:51.931Z</time></trkpt><trkpt lat="45.7905753" lon="9.9642702"><ele>345.0</ele><time>2026-04-18T10:18:52.932Z</time></trkpt><trkpt lat="45.7905785" lon="9.9644768"><ele>345.0</ele><time>2026-04-18T10:18:53.931Z</time></trkpt><trkpt lat="45.790587" lon="9.9646737"><ele>344.25</ele><time>2026-04-18T10:18:54.931Z</time></trkpt><trkpt lat="45.7905794" lon="9.9648867"><ele>343.5</ele><time>2026-04-18T10:18:55.932Z</time></trkpt><trkpt lat="45.7905797" lon="9.9651024"><ele>342.75</ele><time>2026-04-18T10:18:56.931Z</time></trkpt><trkpt lat="45.7905761" lon="9.9653177"><ele>342.0</ele><time>2026-04-18T10:18:57.933Z</time></trkpt><trkpt lat="45.7905771" lon="9.9655239"><ele>342.0</ele><time>2026-04-18T10:18:58.932Z</time></trkpt><trkpt lat="45.790577" lon="9.9657376"><ele>342.0</ele><time>2026-04-18T10:18:59.932Z</time></trkpt><trkpt lat="45.7905702" lon="9.9659568"><ele>342.0</ele><time>2026-04-18T10:19:00.931Z</time></trkpt><trkpt lat="45.7905644" lon="9.9661759"><ele>342.6666666666667</ele><time>2026-04-18T10:19:01.931Z</time></trkpt><trkpt lat="45.7905582" lon="9.9663854"><ele>343.33333333333337</ele><time>2026-04-18T10:19:02.932Z</time></trkpt><trkpt lat="45.7905576" lon="9.9666052"><ele>344.0</ele><time>2026-04-18T10:19:03.931Z</time></trkpt><trkpt lat="45.7905557" lon="9.9668238"><ele>344.33333333333337</ele><time>2026-04-18T10:19:04.931Z</time></trkpt><trkpt lat="45.7905507" lon="9.9670435"><ele>344.6666666666667</ele><time>2026-04-18T10:19:05.931Z</time></trkpt><trkpt lat="45.7905478" lon="9.9672645"><ele>345.0</ele><time>2026-04-18T10:19:06.931Z</time></trkpt><trkpt lat="45.7905444" lon="9.967488"><ele>345.3333333333333</ele><time>2026-04-18T10:19:07.931Z</time></trkpt><trkpt lat="45.7905406" lon="9.9677189"><ele>345.66666666666663</ele><time>2026-04-18T10:19:08.931Z</time></trkpt><trkpt lat="45.7905389" lon="9.9679376"><ele>346.0</ele><time>2026-04-18T10:19:09.932Z</time></trkpt><trkpt lat="45.7905404" lon="9.968157"><ele>346.0</ele><time>2026-04-18T10:19:10.932Z</time></trkpt><trkpt lat="45.7905323" lon="9.9683847"><ele>346.0</ele><time>2026-04-18T10:19:11.932Z</time></trkpt><trkpt lat="45.7905259" lon="9.9685938"><ele>346.0</ele><time>2026-04-18T10:19:12.931Z</time></trkpt><trkpt lat="45.7905148" lon="9.9688061"><ele>346.0</ele><time>2026-04-18T10:19:13.932Z</time></trkpt><trkpt lat="45.7905137" lon="9.9690108"><ele>346.0</ele><time>2026-04-18T10:19:14.932Z</time></trkpt><trkpt lat="45.790516" lon="9.9692252"><ele>346.0</ele><time>2026-04-18T10:19:15.932Z</time></trkpt><trkpt lat="45.7905164" lon="9.9694401"><ele>346.0</ele><time>2026-04-18T10:19:16.931Z</time></trkpt><trkpt lat="45.7905158" lon="9.9696573"><ele>346.0</ele><time>2026-04-18T10:19:17.932Z</time></trkpt><trkpt lat="45.7905202" lon="9.9698746"><ele>346.0</ele><time>2026-04-18T10:19:18.931Z</time></trkpt><trkpt lat="45.7905212" lon="9.9700627"><ele>346.0</ele><time>2026-04-18T10:19:19.931Z</time></trkpt><trkpt lat="45.7905247" lon="9.970247"><ele>346.0</ele><time>2026-04-18T10:19:20.931Z</time></trkpt><trkpt lat="45.790521" lon="9.9704168"><ele>345.75</ele><time>2026-04-18T10:19:21.932Z</time></trkpt><trkpt lat="45.7905184" lon="9.9705925"><ele>345.5</ele><time>2026-04-18T10:19:22.931Z</time></trkpt><trkpt lat="45.7905167" lon="9.970762"><ele>345.25</ele><time>2026-04-18T10:19:23.931Z</time></trkpt><trkpt lat="45.79052" lon="9.9709241"><ele>345.0</ele><time>2026-04-18T10:19:24.931Z</time></trkpt><trkpt lat="45.790524" lon="9.9711001"><ele>345.0</ele><time>2026-04-18T10:19:25.932Z</time></trkpt><trkpt lat="45.7905331" lon="9.9712783"><ele>345.0</ele><time>2026-04-18T10:19:26.931Z</time></trkpt><trkpt lat="45.790544" lon="9.9714535"><ele>345.0</ele><time>2026-04-18T10:19:27.931Z</time></trkpt><trkpt lat="45.7905517" lon="9.9716373"><ele>345.0</ele><time>2026-04-18T10:19:28.931Z</time></trkpt><trkpt lat="45.7905659" lon="9.9718343"><ele>345.0</ele><time>2026-04-18T10:19:29.932Z</time></trkpt><trkpt lat="45.7905783" lon="9.9720378"><ele>345.0</ele><time>2026-04-18T10:19:30.932Z</time></trkpt><trkpt lat="45.7905868" lon="9.9722335"><ele>345.0</ele><time>2026-04-18T10:19:31.931Z</time></trkpt><trkpt lat="45.7905971" lon="9.9724415"><ele>345.0</ele><time>2026-04-18T10:19:32.931Z</time></trkpt><trkpt lat="45.7906033" lon="9.9726672"><ele>345.0</ele><time>2026-04-18T10:19:33.932Z</time></trkpt><trkpt lat="45.7906093" lon="9.9728941"><ele>345.0</ele><time>2026-04-18T10:19:34.932Z</time></trkpt><trkpt lat="45.7906157" lon="9.9731164"><ele>345.0</ele><time>2026-04-18T10:19:35.932Z</time></trkpt><trkpt lat="45.7906158" lon="9.9733354"><ele>348.0</ele><time>2026-04-18T10:19:36.931Z</time></trkpt><trkpt lat="45.7906147" lon="9.9735604"><ele>351.0</ele><time>2026-04-18T10:19:37.931Z</time></trkpt><trkpt lat="45.7906119" lon="9.9737902"><ele>354.0</ele><time>2026-04-18T10:19:38.931Z</time></trkpt><trkpt lat="45.790608" lon="9.974018"><ele>354.3333333333333</ele><time>2026-04-18T10:19:39.931Z</time></trkpt><trkpt lat="45.7905984" lon="9.9742405"><ele>354.66666666666663</ele><time>2026-04-18T10:19:40.932Z</time></trkpt><trkpt lat="45.7905963" lon="9.9744637"><ele>355.0</ele><time>2026-04-18T10:19:41.932Z</time></trkpt><trkpt lat="45.7905835" lon="9.9746741"><ele>355.0</ele><time>2026-04-18T10:19:42.931Z</time></trkpt><trkpt lat="45.7905719" lon="9.9748801"><ele>355.0</ele><time>2026-04-18T10:19:43.931Z</time></trkpt><trkpt lat="45.7905747" lon="9.9751024"><ele>355.0</ele><time>2026-04-18T10:19:44.932Z</time></trkpt><trkpt lat="45.7905689" lon="9.9753164"><ele>355.0</ele><time>2026-04-18T10:19:45.931Z</time></trkpt><trkpt lat="45.7905758" lon="9.9755555"><ele>353.66666666666663</ele><time>2026-04-18T10:19:46.932Z</time></trkpt><trkpt lat="45.7905828" lon="9.9757897"><ele>352.3333333333333</ele><time>2026-04-18T10:19:47.932Z</time></trkpt><trkpt lat="45.7905961" lon="9.9760242"><ele>351.0</ele><time>2026-04-18T10:19:48.932Z</time></trkpt><trkpt lat="45.7906085" lon="9.9762703"><ele>350.3333333333333</ele><time>2026-04-18T10:19:49.931Z</time></trkpt><trkpt lat="45.7906108" lon="9.9764998"><ele>349.66666666666663</ele><time>2026-04-18T10:19:50.932Z</time></trkpt><trkpt lat="45.7906157" lon="9.9767183"><ele>349.0</ele><time>2026-04-18T10:19:51.932Z</time></trkpt><trkpt lat="45.7906205" lon="9.9769261"><ele>349.0</ele><time>2026-04-18T10:19:52.931Z</time></trkpt><trkpt lat="45.7906187" lon="9.9771351"><ele>349.0</ele><time>2026-04-18T10:19:53.932Z</time></trkpt><trkpt lat="45.790615" lon="9.9773328"><ele>349.0</ele><time>2026-04-18T10:19:54.933Z</time></trkpt><trkpt lat="45.7906106" lon="9.9775263"><ele>349.0</ele><time>2026-04-18T10:19:55.932Z</time></trkpt><trkpt lat="45.7906041" lon="9.9777179"><ele>349.25</ele><time>2026-04-18T10:19:56.931Z</time></trkpt><trkpt lat="45.7905985" lon="9.9779083"><ele>349.5</ele><time>2026-04-18T10:19:57.932Z</time></trkpt><trkpt lat="45.7905931" lon="9.978103"><ele>349.75</ele><time>2026-04-18T10:19:58.933Z</time></trkpt><trkpt lat="45.7905913" lon="9.9782953"><ele>350.0</ele><time>2026-04-18T10:19:59.931Z</time></trkpt><trkpt lat="45.7905885" lon="9.9784945"><ele>349.5</ele><time>2026-04-18T10:20:00.932Z</time></trkpt><trkpt lat="45.7905835" lon="9.9786863"><ele>349.0</ele><time>2026-04-18T10:20:01.931Z</time></trkpt><trkpt lat="45.7905734" lon="9.9788807"><ele>348.5</ele><time>2026-04-18T10:20:02.932Z</time></trkpt><trkpt lat="45.7905644" lon="9.9790691"><ele>348.0</ele><time>2026-04-18T10:20:03.931Z</time></trkpt><trkpt lat="45.7905035" lon="9.9794916"><ele>349.3333333333333</ele><time>2026-04-18T10:20:06.058Z</time></trkpt><trkpt lat="45.7904469" lon="9.9798608"><ele>350.66666666666663</ele><time>2026-04-18T10:20:07.931Z</time></trkpt><trkpt lat="45.7904312" lon="9.9800645"><ele>352.0</ele><time>2026-04-18T10:20:08.931Z</time></trkpt><trkpt lat="45.7904183" lon="9.9802574"><ele>352.0</ele><time>2026-04-18T10:20:09.932Z</time></trkpt><trkpt lat="45.7904607" lon="9.9805118"><ele>352.0</ele><time>2026-04-18T10:20:10.931Z</time></trkpt><trkpt lat="45.7903981" lon="9.9806867"><ele>352.0</ele><time>2026-04-18T10:20:11.932Z</time></trkpt><trkpt lat="45.7903684" lon="9.9809048"><ele>352.3333333333333</ele><time>2026-04-18T10:20:12.931Z</time></trkpt><trkpt lat="45.7903021" lon="9.9810941"><ele>352.6666666666667</ele><time>2026-04-18T10:20:13.932Z</time></trkpt><trkpt lat="45.7902986" lon="9.9813066"><ele>353.0</ele><time>2026-04-18T10:20:14.931Z</time></trkpt><trkpt lat="45.7902737" lon="9.9815249"><ele>354.33333333333337</ele><time>2026-04-18T10:20:15.931Z</time></trkpt><trkpt lat="45.7902771" lon="9.9817591"><ele>355.6666666666667</ele><time>2026-04-18T10:20:16.932Z</time></trkpt><trkpt lat="45.7902703" lon="9.9819821"><ele>357.0</ele><time>2026-04-18T10:20:17.931Z</time></trkpt><trkpt lat="45.790281" lon="9.9822152"><ele>357.0</ele><time>2026-04-18T10:20:18.931Z</time></trkpt><trkpt lat="45.7902963" lon="9.9824556"><ele>357.0</ele><time>2026-04-18T10:20:19.932Z</time></trkpt><trkpt lat="45.7903323" lon="9.9827085"><ele>357.0</ele><time>2026-04-18T10:20:20.931Z</time></trkpt><trkpt lat="45.7903268" lon="9.9829597"><ele>357.3333333333333</ele><time>2026-04-18T10:20:21.932Z</time></trkpt><trkpt lat="45.7903463" lon="9.9832261"><ele>357.66666666666663</ele><time>2026-04-18T10:20:22.932Z</time></trkpt><trkpt lat="45.7903718" lon="9.9834843"><ele>358.0</ele><time>2026-04-18T10:20:23.932Z</time></trkpt><trkpt lat="45.7904075" lon="9.9837525"><ele>358.0</ele><time>2026-04-18T10:20:24.932Z</time></trkpt><trkpt lat="45.79042" lon="9.984002"><ele>358.0</ele><time>2026-04-18T10:20:25.932Z</time></trkpt><trkpt lat="45.7904481" lon="9.9842592"><ele>358.0</ele><time>2026-04-18T10:20:26.931Z</time></trkpt><trkpt lat="45.7904465" lon="9.9845055"><ele>358.3333333333333</ele><time>2026-04-18T10:20:27.931Z</time></trkpt><trkpt lat="45.7904293" lon="9.9847437"><ele>358.6666666666667</ele><time>2026-04-18T10:20:28.932Z</time></trkpt><trkpt lat="45.7903837" lon="9.9849641"><ele>359.0</ele><time>2026-04-18T10:20:29.932Z</time></trkpt><trkpt lat="45.7903086" lon="9.9851597"><ele>357.75</ele><time>2026-04-18T10:20:30.933Z</time></trkpt><trkpt lat="45.7902654" lon="9.9853589"><ele>356.5</ele><time>2026-04-18T10:20:31.931Z</time></trkpt><trkpt lat="45.7902408" lon="9.985575"><ele>355.25</ele><time>2026-04-18T10:20:32.931Z</time></trkpt><trkpt lat="45.790206" lon="9.9857722"><ele>354.0</ele><time>2026-04-18T10:20:33.931Z</time></trkpt><trkpt lat="45.7901895" lon="9.9859861"><ele>346.0</ele><time>2026-04-18T10:20:34.931Z</time></trkpt><trkpt lat="45.7901562" lon="9.9864037"><ele>338.0</ele><time>2026-04-18T10:20:36.931Z</time></trkpt><trkpt lat="45.7901672" lon="9.9866562"><ele>341.6666666666667</ele><time>2026-04-18T10:20:37.932Z</time></trkpt><trkpt lat="45.7901929" lon="9.986862"><ele>345.3333333333333</ele><time>2026-04-18T10:20:38.931Z</time></trkpt><trkpt lat="45.7902811" lon="9.9871456"><ele>349.0</ele><time>2026-04-18T10:20:39.931Z</time></trkpt><trkpt lat="45.7903359" lon="9.9873856"><ele>348.66666666666663</ele><time>2026-04-18T10:20:40.931Z</time></trkpt><trkpt lat="45.7903672" lon="9.987626"><ele>348.3333333333333</ele><time>2026-04-18T10:20:41.932Z</time></trkpt><trkpt lat="45.7903693" lon="9.9878461"><ele>348.0</ele><time>2026-04-18T10:20:42.932Z</time></trkpt><trkpt lat="45.7903777" lon="9.988068"><ele>348.0</ele><time>2026-04-18T10:20:43.932Z</time></trkpt><trkpt lat="45.790336" lon="9.9882816"><ele>348.0</ele><time>2026-04-18T10:20:44.932Z</time></trkpt><trkpt lat="45.7902651" lon="9.9884824"><ele>348.0</ele><time>2026-04-18T10:20:45.931Z</time></trkpt><trkpt lat="45.7902028" lon="9.9886901"><ele>347.0</ele><time>2026-04-18T10:20:46.931Z</time></trkpt><trkpt lat="45.7901449" lon="9.9888961"><ele>346.0</ele><time>2026-04-18T10:20:47.931Z</time></trkpt><trkpt lat="45.7900818" lon="9.9890909"><ele>345.0</ele><time>2026-04-18T10:20:48.932Z</time></trkpt><trkpt lat="45.7900086" lon="9.9892886"><ele>345.0</ele><time>2026-04-18T10:20:49.931Z</time></trkpt><trkpt lat="45.7899359" lon="9.9894881"><ele>345.0</ele><time>2026-04-18T10:20:50.931Z</time></trkpt><trkpt lat="45.7898648" lon="9.9896737"><ele>345.0</ele><time>2026-04-18T10:20:51.933Z</time></trkpt><trkpt lat="45.7897952" lon="9.9898595"><ele>344.6666666666667</ele><time>2026-04-18T10:20:52.931Z</time></trkpt><trkpt lat="45.7897126" lon="9.9900567"><ele>344.33333333333337</ele><time>2026-04-18T10:20:53.934Z</time></trkpt><trkpt lat="45.7896342" lon="9.9902479"><ele>344.0</ele><time>2026-04-18T10:20:54.933Z</time></trkpt><trkpt lat="45.7895584" lon="9.9904344"><ele>344.0</ele><time>2026-04-18T10:20:55.933Z</time></trkpt><trkpt lat="45.7894849" lon="9.9906217"><ele>344.0</ele><time>2026-04-18T10:20:56.932Z</time></trkpt><trkpt lat="45.7894128" lon="9.9908086"><ele>344.0</ele><time>2026-04-18T10:20:57.932Z</time></trkpt><trkpt lat="45.7893386" lon="9.9910004"><ele>344.0</ele><time>2026-04-18T10:20:58.932Z</time></trkpt><trkpt lat="45.7892659" lon="9.9911807"><ele>344.0</ele><time>2026-04-18T10:20:59.933Z</time></trkpt><trkpt lat="45.7891974" lon="9.9913531"><ele>344.0</ele><time>2026-04-18T10:21:00.934Z</time></trkpt><trkpt lat="45.7891266" lon="9.9915196"><ele>344.0</ele><time>2026-04-18T10:21:01.933Z</time></trkpt><trkpt lat="45.7890462" lon="9.9916828"><ele>344.25</ele><time>2026-04-18T10:21:02.933Z</time></trkpt><trkpt lat="45.7889903" lon="9.9918555"><ele>344.5</ele><time>2026-04-18T10:21:03.932Z</time></trkpt><trkpt lat="45.7889188" lon="9.9920348"><ele>344.75</ele><time>2026-04-18T10:21:04.933Z</time></trkpt><trkpt lat="45.7888467" lon="9.9922322"><ele>345.0</ele><time>2026-04-18T10:21:05.932Z</time></trkpt><trkpt lat="45.7887704" lon="9.9924424"><ele>345.6666666666667</ele><time>2026-04-18T10:21:06.933Z</time></trkpt><trkpt lat="45.7887022" lon="9.9926487"><ele>346.33333333333337</ele><time>2026-04-18T10:21:07.932Z</time></trkpt><trkpt lat="45.7886394" lon="9.9928477"><ele>347.0</ele><time>2026-04-18T10:21:08.933Z</time></trkpt><trkpt lat="45.7885897" lon="9.9930514"><ele>347.0</ele><time>2026-04-18T10:21:09.933Z</time></trkpt><trkpt lat="45.7885479" lon="9.9932463"><ele>347.0</ele><time>2026-04-18T10:21:10.932Z</time></trkpt><trkpt lat="45.7885083" lon="9.9934452"><ele>347.0</ele><time>2026-04-18T10:21:11.932Z</time></trkpt><trkpt lat="45.788478" lon="9.9936508"><ele>347.0</ele><time>2026-04-18T10:21:12.932Z</time></trkpt><trkpt lat="45.7884398" lon="9.9938535"><ele>346.5</ele><time>2026-04-18T10:21:13.933Z</time></trkpt><trkpt lat="45.788403" lon="9.994043"><ele>346.0</ele><time>2026-04-18T10:21:14.933Z</time></trkpt><trkpt lat="45.7883618" lon="9.9942399"><ele>345.5</ele><time>2026-04-18T10:21:15.933Z</time></trkpt><trkpt lat="45.7883289" lon="9.9944405"><ele>345.0</ele><time>2026-04-18T10:21:16.933Z</time></trkpt><trkpt lat="45.788293" lon="9.9946271"><ele>345.0</ele><time>2026-04-18T10:21:17.933Z</time></trkpt><trkpt lat="45.7882571" lon="9.9948038"><ele>345.0</ele><time>2026-04-18T10:21:18.933Z</time></trkpt><trkpt lat="45.7882239" lon="9.9949866"><ele>345.0</ele><time>2026-04-18T10:21:19.934Z</time></trkpt><trkpt lat="45.788193" lon="9.9951774"><ele>345.0</ele><time>2026-04-18T10:21:20.932Z</time></trkpt><trkpt lat="45.78818" lon="9.9952804"><ele>345.1666666666667</ele><time>2026-04-18T10:21:21.934Z</time></trkpt><trkpt lat="45.7881777" lon="9.9954124"><ele>345.3333333333333</ele><time>2026-04-18T10:21:22.933Z</time></trkpt><trkpt lat="45.788163" lon="9.9955325"><ele>345.5</ele><time>2026-04-18T10:21:23.933Z</time></trkpt><trkpt lat="45.7881548" lon="9.9956543"><ele>345.66666666666663</ele><time>2026-04-18T10:21:24.932Z</time></trkpt><trkpt lat="45.7881459" lon="9.9957868"><ele>345.8333333333333</ele><time>2026-04-18T10:21:25.933Z</time></trkpt><trkpt lat="45.7881428" lon="9.995906"><ele>346.0</ele><time>2026-04-18T10:21:26.932Z</time></trkpt><trkpt lat="45.7881351" lon="9.9960099"><ele>346.16666666666663</ele><time>2026-04-18T10:21:27.932Z</time></trkpt><trkpt lat="45.7881315" lon="9.9961123"><ele>346.3333333333333</ele><time>2026-04-18T10:21:28.933Z</time></trkpt><trkpt lat="45.7881074" lon="9.9962183"><ele>346.5</ele><time>2026-04-18T10:21:29.933Z</time></trkpt><trkpt lat="45.7880905" lon="9.9963175"><ele>346.6666666666667</ele><time>2026-04-18T10:21:30.933Z</time></trkpt><trkpt lat="45.7880855" lon="9.9964273"><ele>346.83333333333337</ele><time>2026-04-18T10:21:31.933Z</time></trkpt><trkpt lat="45.7880777" lon="9.9965381"><ele>347.0</ele><time>2026-04-18T10:21:32.933Z</time></trkpt><trkpt lat="45.7880711" lon="9.9966489"><ele>347.33333333333337</ele><time>2026-04-18T10:21:33.933Z</time></trkpt><trkpt lat="45.7880557" lon="9.9967725"><ele>347.6666666666667</ele><time>2026-04-18T10:21:34.932Z</time></trkpt><trkpt lat="45.7880447" lon="9.9969013"><ele>348.0</ele><time>2026-04-18T10:21:35.933Z</time></trkpt><trkpt lat="45.7880413" lon="9.9970346"><ele>348.3333333333333</ele><time>2026-04-18T10:21:36.933Z</time></trkpt><trkpt lat="45.7880267" lon="9.9971561"><ele>348.66666666666663</ele><time>2026-04-18T10:21:37.933Z</time></trkpt><trkpt lat="45.7880179" lon="9.9972811"><ele>349.0</ele><time>2026-04-18T10:21:38.932Z</time></trkpt><trkpt lat="45.7880074" lon="9.9974159"><ele>349.4</ele><time>2026-04-18T10:21:39.933Z</time></trkpt><trkpt lat="45.7880021" lon="9.9975539"><ele>349.79999999999995</ele><time>2026-04-18T10:21:40.933Z</time></trkpt><trkpt lat="45.7879913" lon="9.9976969"><ele>350.20000000000005</ele><time>2026-04-18T10:21:41.932Z</time></trkpt><trkpt lat="45.7879755" lon="9.9978479"><ele>350.6</ele><time>2026-04-18T10:21:42.932Z</time></trkpt><trkpt lat="45.7879648" lon="9.9980041"><ele>351.0</ele><time>2026-04-18T10:21:43.932Z</time></trkpt><trkpt lat="45.7879565" lon="9.9981654"><ele>351.25</ele><time>2026-04-18T10:21:44.933Z</time></trkpt><trkpt lat="45.787973" lon="9.9983493"><ele>351.5</ele><time>2026-04-18T10:21:45.932Z</time></trkpt><trkpt lat="45.7879855" lon="9.9985235"><ele>351.75</ele><time>2026-04-18T10:21:46.933Z</time></trkpt><trkpt lat="45.7880333" lon="9.9987028"><ele>352.0</ele><time>2026-04-18T10:21:47.933Z</time></trkpt><trkpt lat="45.7880904" lon="9.9988703"><ele>352.0</ele><time>2026-04-18T10:21:48.932Z</time></trkpt><trkpt lat="45.788144" lon="9.9990184"><ele>352.0</ele><time>2026-04-18T10:21:49.933Z</time></trkpt><trkpt lat="45.7882132" lon="9.999156"><ele>352.0</ele><time>2026-04-18T10:21:50.933Z</time></trkpt><trkpt lat="45.788268" lon="9.9992859"><ele>352.0</ele><time>2026-04-18T10:21:51.933Z</time></trkpt><trkpt lat="45.7883116" lon="9.999373"><ele>352.0</ele><time>2026-04-18T10:21:52.932Z</time></trkpt><trkpt lat="45.7884146" lon="9.9995055"><ele>351.66666666666663</ele><time>2026-04-18T10:21:54.932Z</time></trkpt><trkpt lat="45.7884567" lon="9.9995837"><ele>351.3333333333333</ele><time>2026-04-18T10:21:55.933Z</time></trkpt><trkpt lat="45.7885097" lon="9.9996829"><ele>351.0</ele><time>2026-04-18T10:21:56.932Z</time></trkpt><trkpt lat="45.7885676" lon="9.9997646"><ele>350.6666666666667</ele><time>2026-04-18T10:21:57.933Z</time></trkpt><trkpt lat="45.7886221" lon="9.9998597"><ele>350.33333333333337</ele><time>2026-04-18T10:21:58.933Z</time></trkpt><trkpt lat="45.788671" lon="9.999938"><ele>350.0</ele><time>2026-04-18T10:21:59.933Z</time></trkpt><trkpt lat="45.7887318" lon="10.0000244"><ele>351.0</ele><time>2026-04-18T10:22:00.933Z</time></trkpt><trkpt lat="45.788803" lon="10.0001256"><ele>352.0</ele><time>2026-04-18T10:22:01.932Z</time></trkpt><trkpt lat="45.788847" lon="10.0002154"><ele>353.0</ele><time>2026-04-18T10:22:02.932Z</time></trkpt><trkpt lat="45.788903" lon="10.0003341"><ele>354.0</ele><time>2026-04-18T10:22:03.933Z</time></trkpt><trkpt lat="45.7889812" lon="10.0004701"><ele>355.0</ele><time>2026-04-18T10:22:04.932Z</time></trkpt><trkpt lat="45.7890564" lon="10.0005988"><ele>355.0</ele><time>2026-04-18T10:22:05.933Z</time></trkpt><trkpt lat="45.7891323" lon="10.0007251"><ele>355.0</ele><time>2026-04-18T10:22:06.932Z</time></trkpt><trkpt lat="45.7892049" lon="10.00084"><ele>355.0</ele><time>2026-04-18T10:22:07.932Z</time></trkpt><trkpt lat="45.7892793" lon="10.00096"><ele>355.0</ele><time>2026-04-18T10:22:08.933Z</time></trkpt><trkpt lat="45.7893587" lon="10.0010702"><ele>355.0</ele><time>2026-04-18T10:22:09.933Z</time></trkpt><trkpt lat="45.7894475" lon="10.0011851"><ele>355.0</ele><time>2026-04-18T10:22:10.932Z</time></trkpt><trkpt lat="45.7895502" lon="10.0012927"><ele>355.0</ele><time>2026-04-18T10:22:11.932Z</time></trkpt><trkpt lat="45.7897313" lon="10.0014349"><ele>355.0</ele><time>2026-04-18T10:22:13.658Z</time></trkpt><trkpt lat="45.7898733" lon="10.0015206"><ele>355.0</ele><time>2026-04-18T10:22:14.934Z</time></trkpt><trkpt lat="45.7899605" lon="10.0016134"><ele>355.0</ele><time>2026-04-18T10:22:15.932Z</time></trkpt><trkpt lat="45.7900499" lon="10.0017079"><ele>355.0</ele><time>2026-04-18T10:22:16.933Z</time></trkpt><trkpt lat="45.7901274" lon="10.0018003"><ele>355.0</ele><time>2026-04-18T10:22:17.932Z</time></trkpt><trkpt lat="45.7901911" lon="10.0019091"><ele>355.0</ele><time>2026-04-18T10:22:18.934Z</time></trkpt><trkpt lat="45.7902469" lon="10.0019936"><ele>354.25</ele><time>2026-04-18T10:22:19.932Z</time></trkpt><trkpt lat="45.7902936" lon="10.0021065"><ele>353.5</ele><time>2026-04-18T10:22:20.933Z</time></trkpt><trkpt lat="45.7903503" lon="10.0022548"><ele>352.75</ele><time>2026-04-18T10:22:22.933Z</time></trkpt><trkpt lat="45.7904025" lon="10.0024606"><ele>352.0</ele><time>2026-04-18T10:22:24.933Z</time></trkpt><trkpt lat="45.7904374" lon="10.0025894"><ele>350.5</ele><time>2026-04-18T10:22:25.934Z</time></trkpt><trkpt lat="45.7905045" lon="10.0026481"><ele>349.0</ele><time>2026-04-18T10:22:26.933Z</time></trkpt><trkpt lat="45.7905744" lon="10.0027322"><ele>347.5</ele><time>2026-04-18T10:22:27.932Z</time></trkpt><trkpt lat="45.7907108" lon="10.0027178"><ele>346.0</ele><time>2026-04-18T10:22:29.933Z</time></trkpt><trkpt lat="45.7908947" lon="10.0026972"><ele>348.75</ele><time>2026-04-18T10:22:30.933Z</time></trkpt><trkpt lat="45.7910273" lon="10.0027382"><ele>351.5</ele><time>2026-04-18T10:22:31.933Z</time></trkpt><trkpt lat="45.7911586" lon="10.0028261"><ele>354.25</ele><time>2026-04-18T10:22:32.932Z</time></trkpt><trkpt lat="45.791279" lon="10.0029083"><ele>357.0</ele><time>2026-04-18T10:22:33.932Z</time></trkpt><trkpt lat="45.791408" lon="10.0029924"><ele>357.0</ele><time>2026-04-18T10:22:34.932Z</time></trkpt><trkpt lat="45.7915299" lon="10.0031032"><ele>357.0</ele><time>2026-04-18T10:22:35.933Z</time></trkpt><trkpt lat="45.7916483" lon="10.0032297"><ele>357.0</ele><time>2026-04-18T10:22:36.932Z</time></trkpt><trkpt lat="45.7917677" lon="10.0033485"><ele>357.0</ele><time>2026-04-18T10:22:37.932Z</time></trkpt><trkpt lat="45.7918838" lon="10.0034822"><ele>358.0</ele><time>2026-04-18T10:22:38.933Z</time></trkpt><trkpt lat="45.7919986" lon="10.0036136"><ele>359.0</ele><time>2026-04-18T10:22:39.933Z</time></trkpt><trkpt lat="45.7921143" lon="10.0037416"><ele>360.0</ele><time>2026-04-18T10:22:40.933Z</time></trkpt><trkpt lat="45.792239" lon="10.0038711"><ele>361.0</ele><time>2026-04-18T10:22:41.933Z</time></trkpt><trkpt lat="45.7923558" lon="10.004002"><ele>361.0</ele><time>2026-04-18T10:22:42.933Z</time></trkpt><trkpt lat="45.7924701" lon="10.0041416"><ele>361.0</ele><time>2026-04-18T10:22:43.932Z</time></trkpt><trkpt lat="45.7925997" lon="10.0042856"><ele>361.0</ele><time>2026-04-18T10:22:44.933Z</time></trkpt><trkpt lat="45.7927338" lon="10.0044253"><ele>364.3333333333333</ele><time>2026-04-18T10:22:45.934Z</time></trkpt><trkpt lat="45.7928696" lon="10.0045702"><ele>367.6666666666667</ele><time>2026-04-18T10:22:46.933Z</time></trkpt><trkpt lat="45.7929869" lon="10.0046938"><ele>371.0</ele><time>2026-04-18T10:22:47.932Z</time></trkpt><trkpt lat="45.7931092" lon="10.0048237"><ele>371.0</ele><time>2026-04-18T10:22:48.932Z</time></trkpt><trkpt lat="45.7932336" lon="10.0049522"><ele>371.0</ele><time>2026-04-18T10:22:49.933Z</time></trkpt><trkpt lat="45.7933548" lon="10.0050731"><ele>371.0</ele><time>2026-04-18T10:22:50.933Z</time></trkpt><trkpt lat="45.793468" lon="10.0052043"><ele>371.0</ele><time>2026-04-18T10:22:51.934Z</time></trkpt><trkpt lat="45.7935828" lon="10.0053589"><ele>370.0</ele><time>2026-04-18T10:22:52.933Z</time></trkpt><trkpt lat="45.7936814" lon="10.0055177"><ele>369.0</ele><time>2026-04-18T10:22:53.933Z</time></trkpt><trkpt lat="45.7937898" lon="10.0057041"><ele>368.0</ele><time>2026-04-18T10:22:54.933Z</time></trkpt><trkpt lat="45.793861" lon="10.00592"><ele>361.0</ele><time>2026-04-18T10:22:55.933Z</time></trkpt><trkpt lat="45.7939135" lon="10.0061378"><ele>354.0</ele><time>2026-04-18T10:22:56.932Z</time></trkpt><trkpt lat="45.7939426" lon="10.0063743"><ele>347.0</ele><time>2026-04-18T10:22:57.933Z</time></trkpt><trkpt lat="45.7939772" lon="10.0066117"><ele>346.5</ele><time>2026-04-18T10:22:58.933Z</time></trkpt><trkpt lat="45.7939921" lon="10.0068406"><ele>346.0</ele><time>2026-04-18T10:22:59.933Z</time></trkpt><trkpt lat="45.7940051" lon="10.0070479"><ele>345.5</ele><time>2026-04-18T10:23:00.932Z</time></trkpt><trkpt lat="45.7940131" lon="10.0072488"><ele>345.0</ele><time>2026-04-18T10:23:01.932Z</time></trkpt><trkpt lat="45.7940299" lon="10.0074523"><ele>345.5</ele><time>2026-04-18T10:23:02.932Z</time></trkpt><trkpt lat="45.7940529" lon="10.0076575"><ele>346.0</ele><time>2026-04-18T10:23:03.933Z</time></trkpt><trkpt lat="45.7940641" lon="10.0078587"><ele>346.5</ele><time>2026-04-18T10:23:04.932Z</time></trkpt><trkpt lat="45.7940863" lon="10.0080637"><ele>347.0</ele><time>2026-04-18T10:23:05.932Z</time></trkpt><trkpt lat="45.7941311" lon="10.008271"><ele>347.0</ele><time>2026-04-18T10:23:06.932Z</time></trkpt><trkpt lat="45.7942121" lon="10.0084459"><ele>347.0</ele><time>2026-04-18T10:23:07.933Z</time></trkpt><trkpt lat="45.7943027" lon="10.0086408"><ele>347.0</ele><time>2026-04-18T10:23:08.933Z</time></trkpt><trkpt lat="45.7943985" lon="10.0088116"><ele>347.0</ele><time>2026-04-18T10:23:09.933Z</time></trkpt><trkpt lat="45.7944872" lon="10.0089583"><ele>347.0</ele><time>2026-04-18T10:23:10.933Z</time></trkpt><trkpt lat="45.7946259" lon="10.0090935"><ele>347.0</ele><time>2026-04-18T10:23:11.934Z</time></trkpt><trkpt lat="45.7947375" lon="10.0092254"><ele>347.0</ele><time>2026-04-18T10:23:12.932Z</time></trkpt><trkpt lat="45.7948831" lon="10.0093332"><ele>347.0</ele><time>2026-04-18T10:23:13.932Z</time></trkpt><trkpt lat="45.7950083" lon="10.0094697"><ele>347.0</ele><time>2026-04-18T10:23:14.933Z</time></trkpt><trkpt lat="45.7951419" lon="10.0095981"><ele>347.0</ele><time>2026-04-18T10:23:15.932Z</time></trkpt><trkpt lat="45.795273" lon="10.0097282"><ele>347.0</ele><time>2026-04-18T10:23:16.934Z</time></trkpt><trkpt lat="45.7954127" lon="10.0098569"><ele>347.0</ele><time>2026-04-18T10:23:17.932Z</time></trkpt><trkpt lat="45.7955362" lon="10.0099866"><ele>347.0</ele><time>2026-04-18T10:23:18.933Z</time></trkpt><trkpt lat="45.7956654" lon="10.0101063"><ele>348.0</ele><time>2026-04-18T10:23:19.932Z</time></trkpt><trkpt lat="45.795794" lon="10.0102238"><ele>349.0</ele><time>2026-04-18T10:23:20.933Z</time></trkpt><trkpt lat="45.7959249" lon="10.0103636"><ele>350.0</ele><time>2026-04-18T10:23:21.933Z</time></trkpt><trkpt lat="45.7960522" lon="10.0105"><ele>350.0</ele><time>2026-04-18T10:23:22.934Z</time></trkpt><trkpt lat="45.7961791" lon="10.0106517"><ele>350.0</ele><time>2026-04-18T10:23:23.933Z</time></trkpt><trkpt lat="45.7962981" lon="10.0108041"><ele>350.0</ele><time>2026-04-18T10:23:24.934Z</time></trkpt><trkpt lat="45.7964181" lon="10.0109493"><ele>350.0</ele><time>2026-04-18T10:23:25.933Z</time></trkpt><trkpt lat="45.796542" lon="10.0110988"><ele>350.0</ele><time>2026-04-18T10:23:26.933Z</time></trkpt><trkpt lat="45.7966664" lon="10.0112496"><ele>350.0</ele><time>2026-04-18T10:23:27.933Z</time></trkpt><trkpt lat="45.7967945" lon="10.0114049"><ele>349.6666666666667</ele><time>2026-04-18T10:23:28.932Z</time></trkpt><trkpt lat="45.7969158" lon="10.0115623"><ele>349.3333333333333</ele><time>2026-04-18T10:23:29.932Z</time></trkpt><trkpt lat="45.7970389" lon="10.0117184"><ele>349.0</ele><time>2026-04-18T10:23:30.933Z</time></trkpt><trkpt lat="45.7971647" lon="10.0118724"><ele>349.0</ele><time>2026-04-18T10:23:31.933Z</time></trkpt><trkpt lat="45.7972886" lon="10.0120275"><ele>349.0</ele><time>2026-04-18T10:23:32.932Z</time></trkpt><trkpt lat="45.7974044" lon="10.012184"><ele>349.0</ele><time>2026-04-18T10:23:33.933Z</time></trkpt><trkpt lat="45.797519" lon="10.0123384"><ele>349.0</ele><time>2026-04-18T10:23:34.932Z</time></trkpt><trkpt lat="45.7976283" lon="10.012489"><ele>349.0</ele><time>2026-04-18T10:23:35.933Z</time></trkpt><trkpt lat="45.7977232" lon="10.0126168"><ele>349.0</ele><time>2026-04-18T10:23:36.932Z</time></trkpt><trkpt lat="45.7977989" lon="10.0127357"><ele>349.0</ele><time>2026-04-18T10:23:37.932Z</time></trkpt><trkpt lat="45.7978793" lon="10.0128609"><ele>349.25</ele><time>2026-04-18T10:23:38.932Z</time></trkpt><trkpt lat="45.7979552" lon="10.0129817"><ele>349.5</ele><time>2026-04-18T10:23:39.933Z</time></trkpt><trkpt lat="45.7980497" lon="10.0131257"><ele>349.75</ele><time>2026-04-18T10:23:40.933Z</time></trkpt><trkpt lat="45.7981058" lon="10.0132634"><ele>350.0</ele><time>2026-04-18T10:23:41.933Z</time></trkpt><trkpt lat="45.7981692" lon="10.0134221"><ele>348.5</ele><time>2026-04-18T10:23:42.933Z</time></trkpt><trkpt lat="45.7982414" lon="10.0135982"><ele>347.0</ele><time>2026-04-18T10:23:43.932Z</time></trkpt><trkpt lat="45.7983124" lon="10.0137803"><ele>345.5</ele><time>2026-04-18T10:23:44.932Z</time></trkpt><trkpt lat="45.7983712" lon="10.0139624"><ele>344.0</ele><time>2026-04-18T10:23:45.933Z</time></trkpt><trkpt lat="45.7984437" lon="10.0141639"><ele>344.33333333333337</ele><time>2026-04-18T10:23:46.933Z</time></trkpt><trkpt lat="45.7985182" lon="10.0143808"><ele>344.6666666666667</ele><time>2026-04-18T10:23:47.932Z</time></trkpt><trkpt lat="45.798602" lon="10.01461"><ele>345.0</ele><time>2026-04-18T10:23:48.933Z</time></trkpt><trkpt lat="45.7986764" lon="10.0148286"><ele>344.3333333333333</ele><time>2026-04-18T10:23:49.933Z</time></trkpt><trkpt lat="45.7987606" lon="10.0150783"><ele>343.66666666666663</ele><time>2026-04-18T10:23:50.932Z</time></trkpt><trkpt lat="45.7988467" lon="10.0153107"><ele>343.0</ele><time>2026-04-18T10:23:51.933Z</time></trkpt><trkpt lat="45.7989443" lon="10.0155664"><ele>343.0</ele><time>2026-04-18T10:23:52.934Z</time></trkpt><trkpt lat="45.7990237" lon="10.0158188"><ele>343.0</ele><time>2026-04-18T10:23:53.933Z</time></trkpt><trkpt lat="45.799106" lon="10.0160561"><ele>343.0</ele><time>2026-04-18T10:23:54.932Z</time></trkpt><trkpt lat="45.7991936" lon="10.0162883"><ele>343.0</ele><time>2026-04-18T10:23:55.933Z</time></trkpt><trkpt lat="45.7992677" lon="10.0165171"><ele>343.0</ele><time>2026-04-18T10:23:56.932Z</time></trkpt><trkpt lat="45.7993417" lon="10.0167366"><ele>343.0</ele><time>2026-04-18T10:23:57.933Z</time></trkpt><trkpt lat="45.7994108" lon="10.0169384"><ele>343.3333333333333</ele><time>2026-04-18T10:23:58.932Z</time></trkpt><trkpt lat="45.7994847" lon="10.017148"><ele>343.6666666666667</ele><time>2026-04-18T10:23:59.932Z</time></trkpt><trkpt lat="45.799555" lon="10.0173371"><ele>344.0</ele><time>2026-04-18T10:24:00.932Z</time></trkpt><trkpt lat="45.7996199" lon="10.0175223"><ele>344.25</ele><time>2026-04-18T10:24:01.932Z</time></trkpt><trkpt lat="45.7996767" lon="10.0176911"><ele>344.5</ele><time>2026-04-18T10:24:02.933Z</time></trkpt><trkpt lat="45.799747" lon="10.0178615"><ele>344.75</ele><time>2026-04-18T10:24:03.933Z</time></trkpt><trkpt lat="45.7998085" lon="10.0180157"><ele>345.0</ele><time>2026-04-18T10:24:04.932Z</time></trkpt><trkpt lat="45.7998781" lon="10.018176"><ele>344.75</ele><time>2026-04-18T10:24:05.933Z</time></trkpt><trkpt lat="45.7999491" lon="10.0183337"><ele>344.5</ele><time>2026-04-18T10:24:06.933Z</time></trkpt><trkpt lat="45.8000172" lon="10.0184926"><ele>344.25</ele><time>2026-04-18T10:24:07.933Z</time></trkpt><trkpt lat="45.8000601" lon="10.0186906"><ele>344.0</ele><time>2026-04-18T10:24:08.932Z</time></trkpt><trkpt lat="45.8001172" lon="10.0188783"><ele>344.0</ele><time>2026-04-18T10:24:09.932Z</time></trkpt><trkpt lat="45.8001457" lon="10.019069"><ele>344.0</ele><time>2026-04-18T10:24:10.932Z</time></trkpt><trkpt lat="45.8002287" lon="10.0192845"><ele>344.0</ele><time>2026-04-18T10:24:11.932Z</time></trkpt><trkpt lat="45.8002926" lon="10.0195037"><ele>343.0</ele><time>2026-04-18T10:24:12.933Z</time></trkpt><trkpt lat="45.8004991" lon="10.0197776"><ele>342.0</ele><time>2026-04-18T10:24:13.933Z</time></trkpt><trkpt lat="45.8007016" lon="10.019887"><ele>343.0</ele><time>2026-04-18T10:24:14.932Z</time></trkpt><trkpt lat="45.800918" lon="10.020006"><ele>344.0</ele><time>2026-04-18T10:24:15.933Z</time></trkpt><trkpt lat="45.8010999" lon="10.0201391"><ele>345.0</ele><time>2026-04-18T10:24:16.933Z</time></trkpt><trkpt lat="45.8012935" lon="10.0202984"><ele>345.0</ele><time>2026-04-18T10:24:17.934Z</time></trkpt><trkpt lat="45.8015084" lon="10.020439"><ele>345.0</ele><time>2026-04-18T10:24:18.933Z</time></trkpt><trkpt lat="45.8017671" lon="10.0205765"><ele>345.0</ele><time>2026-04-18T10:24:19.933Z</time></trkpt><trkpt lat="45.8020188" lon="10.0207191"><ele>345.0</ele><time>2026-04-18T10:24:20.933Z</time></trkpt><trkpt lat="45.8022625" lon="10.0208541"><ele>345.0</ele><time>2026-04-18T10:24:21.932Z</time></trkpt><trkpt lat="45.8025135" lon="10.0209911"><ele>345.0</ele><time>2026-04-18T10:24:22.932Z</time></trkpt><trkpt lat="45.8027568" lon="10.0211289"><ele>345.0</ele><time>2026-04-18T10:24:23.933Z</time></trkpt><trkpt lat="45.8030039" lon="10.0212957"><ele>345.0</ele><time>2026-04-18T10:24:24.932Z</time></trkpt><trkpt lat="45.8032244" lon="10.0214451"><ele>345.0</ele><time>2026-04-18T10:24:25.933Z</time></trkpt><trkpt lat="45.8034374" lon="10.0216297"><ele>345.0</ele><time>2026-04-18T10:24:26.933Z</time></trkpt><trkpt lat="45.8036396" lon="10.0218225"><ele>344.5</ele><time>2026-04-18T10:24:27.933Z</time></trkpt><trkpt lat="45.803822" lon="10.0220386"><ele>344.0</ele><time>2026-04-18T10:24:28.932Z</time></trkpt><trkpt lat="45.8040221" lon="10.0223174"><ele>345.5</ele><time>2026-04-18T10:24:29.932Z</time></trkpt><trkpt lat="45.804166" lon="10.022629"><ele>347.0</ele><time>2026-04-18T10:24:30.933Z</time></trkpt><trkpt lat="45.8043191" lon="10.0229537"><ele>347.0</ele><time>2026-04-18T10:24:31.933Z</time></trkpt><trkpt lat="45.8044864" lon="10.023255"><ele>347.0</ele><time>2026-04-18T10:24:32.933Z</time></trkpt><trkpt lat="45.8046729" lon="10.0235008"><ele>347.0</ele><time>2026-04-18T10:24:33.932Z</time></trkpt><trkpt lat="45.804872" lon="10.0237102"><ele>347.0</ele><time>2026-04-18T10:24:34.932Z</time></trkpt><trkpt lat="45.8050869" lon="10.0239402"><ele>346.0</ele><time>2026-04-18T10:24:35.932Z</time></trkpt><trkpt lat="45.8052989" lon="10.0241433"><ele>345.0</ele><time>2026-04-18T10:24:36.933Z</time></trkpt><trkpt lat="45.8055128" lon="10.0243691"><ele>345.0</ele><time>2026-04-18T10:24:37.933Z</time></trkpt><trkpt lat="45.8057141" lon="10.0246497"><ele>345.0</ele><time>2026-04-18T10:24:38.932Z</time></trkpt><trkpt lat="45.8059131" lon="10.0249272"><ele>344.0</ele><time>2026-04-18T10:24:39.932Z</time></trkpt><trkpt lat="45.8060928" lon="10.0252154"><ele>343.0</ele><time>2026-04-18T10:24:40.933Z</time></trkpt><trkpt lat="45.8062536" lon="10.0255111"><ele>345.0</ele><time>2026-04-18T10:24:41.933Z</time></trkpt><trkpt lat="45.8064074" lon="10.0258193"><ele>347.0</ele><time>2026-04-18T10:24:42.932Z</time></trkpt><trkpt lat="45.8065514" lon="10.0261424"><ele>347.0</ele><time>2026-04-18T10:24:43.932Z</time></trkpt><trkpt lat="45.8066546" lon="10.0264695"><ele>347.0</ele><time>2026-04-18T10:24:44.932Z</time></trkpt><trkpt lat="45.806758" lon="10.0267996"><ele>345.5</ele><time>2026-04-18T10:24:45.933Z</time></trkpt><trkpt lat="45.8068403" lon="10.0271098"><ele>344.0</ele><time>2026-04-18T10:24:46.932Z</time></trkpt><trkpt lat="45.8069063" lon="10.0274324"><ele>345.5</ele><time>2026-04-18T10:24:47.933Z</time></trkpt><trkpt lat="45.8069719" lon="10.0277631"><ele>347.0</ele><time>2026-04-18T10:24:48.933Z</time></trkpt><trkpt lat="45.80741" lon="10.0320857"><ele>345.5</ele><time>2026-04-18T10:24:58.934Z</time></trkpt><trkpt lat="45.8074739" lon="10.0325394"><ele>344.0</ele><time>2026-04-18T10:24:59.933Z</time></trkpt><trkpt lat="45.8074902" lon="10.0329175"><ele>344.0</ele><time>2026-04-18T10:25:00.934Z</time></trkpt><trkpt lat="45.8074929" lon="10.0332882"><ele>344.0</ele><time>2026-04-18T10:25:01.933Z</time></trkpt><trkpt lat="45.8074867" lon="10.0336604"><ele>343.5</ele><time>2026-04-18T10:25:02.933Z</time></trkpt><trkpt lat="45.8074741" lon="10.0340362"><ele>343.0</ele><time>2026-04-18T10:25:03.933Z</time></trkpt><trkpt lat="45.8074427" lon="10.0343974"><ele>343.0</ele><time>2026-04-18T10:25:04.933Z</time></trkpt><trkpt lat="45.8074092" lon="10.0347604"><ele>343.0</ele><time>2026-04-18T10:25:05.934Z</time></trkpt><trkpt lat="45.8073504" lon="10.0351218"><ele>345.0</ele><time>2026-04-18T10:25:06.933Z</time></trkpt><trkpt lat="45.8072995" lon="10.0355333"><ele>347.0</ele><time>2026-04-18T10:25:07.934Z</time></trkpt><trkpt lat="45.8072227" lon="10.0359561"><ele>347.5</ele><time>2026-04-18T10:25:08.934Z</time></trkpt><trkpt lat="45.807159" lon="10.0363338"><ele>348.0</ele><time>2026-04-18T10:25:09.933Z</time></trkpt><trkpt lat="45.8070784" lon="10.0367734"><ele>342.5</ele><time>2026-04-18T10:25:10.934Z</time></trkpt><trkpt lat="45.8069525" lon="10.0372205"><ele>337.0</ele><time>2026-04-18T10:25:11.933Z</time></trkpt><trkpt lat="45.8068879" lon="10.0376834"><ele>336.0</ele><time>2026-04-18T10:25:12.933Z</time></trkpt><trkpt lat="45.8067859" lon="10.0381034"><ele>335.0</ele><time>2026-04-18T10:25:13.933Z</time></trkpt><trkpt lat="45.806695" lon="10.038555"><ele>335.0</ele><time>2026-04-18T10:25:14.934Z</time></trkpt><trkpt lat="45.8066042" lon="10.0389851"><ele>335.0</ele><time>2026-04-18T10:25:15.934Z</time></trkpt><trkpt lat="45.8064942" lon="10.0393942"><ele>329.0</ele><time>2026-04-18T10:25:16.934Z</time></trkpt><trkpt lat="45.8063808" lon="10.0397894"><ele>323.0</ele><time>2026-04-18T10:25:17.933Z</time></trkpt><trkpt lat="45.8062872" lon="10.0401787"><ele>316.5</ele><time>2026-04-18T10:25:18.933Z</time></trkpt><trkpt lat="45.806182" lon="10.0405563"><ele>310.0</ele><time>2026-04-18T10:25:19.933Z</time></trkpt><trkpt lat="45.8060902" lon="10.0409191"><ele>305.5</ele><time>2026-04-18T10:25:20.934Z</time></trkpt><trkpt lat="45.8059984" lon="10.0412762"><ele>301.0</ele><time>2026-04-18T10:25:21.934Z</time></trkpt><trkpt lat="45.8058933" lon="10.0416307"><ele>309.0</ele><time>2026-04-18T10:25:22.933Z</time></trkpt><trkpt lat="45.8057961" lon="10.0419641"><ele>317.0</ele><time>2026-04-18T10:25:23.933Z</time></trkpt><trkpt lat="45.8057009" lon="10.0422757"><ele>312.0</ele><time>2026-04-18T10:25:24.933Z</time></trkpt><trkpt lat="45.8056061" lon="10.0426021"><ele>307.0</ele><time>2026-04-18T10:25:25.934Z</time></trkpt><trkpt lat="45.8055119" lon="10.0428821"><ele>307.0</ele><time>2026-04-18T10:25:26.934Z</time></trkpt><trkpt lat="45.8054319" lon="10.0432014"><ele>307.0</ele><time>2026-04-18T10:25:27.934Z</time></trkpt><trkpt lat="45.8053593" lon="10.0435191"><ele>304.5</ele><time>2026-04-18T10:25:28.933Z</time></trkpt><trkpt lat="45.8052832" lon="10.0438203"><ele>302.0</ele><time>2026-04-18T10:25:29.933Z</time></trkpt><trkpt lat="45.805243" lon="10.0441397"><ele>300.0</ele><time>2026-04-18T10:25:30.934Z</time></trkpt><trkpt lat="45.8052013" lon="10.044438"><ele>298.0</ele><time>2026-04-18T10:25:31.933Z</time></trkpt><trkpt lat="45.8051833" lon="10.044743"><ele>296.0</ele><time>2026-04-18T10:25:32.933Z</time></trkpt><trkpt lat="45.8051634" lon="10.0450231"><ele>299.0</ele><time>2026-04-18T10:25:33.933Z</time></trkpt><trkpt lat="45.8051471" lon="10.0452785"><ele>302.0</ele><time>2026-04-18T10:25:34.934Z</time></trkpt><trkpt lat="45.8051521" lon="10.0455333"><ele>305.0</ele><time>2026-04-18T10:25:35.933Z</time></trkpt><trkpt lat="45.8051573" lon="10.0457696"><ele>300.6666666666667</ele><time>2026-04-18T10:25:36.933Z</time></trkpt><trkpt lat="45.8051687" lon="10.0460034"><ele>296.3333333333333</ele><time>2026-04-18T10:25:37.934Z</time></trkpt><trkpt lat="45.8051783" lon="10.0462354"><ele>292.0</ele><time>2026-04-18T10:25:38.933Z</time></trkpt><trkpt lat="45.8051948" lon="10.0464573"><ele>292.3333333333333</ele><time>2026-04-18T10:25:39.933Z</time></trkpt><trkpt lat="45.8052113" lon="10.0466872"><ele>292.6666666666667</ele><time>2026-04-18T10:25:40.933Z</time></trkpt><trkpt lat="45.8052331" lon="10.0469175"><ele>293.0</ele><time>2026-04-18T10:25:41.934Z</time></trkpt><trkpt lat="45.8052675" lon="10.047147"><ele>293.0</ele><time>2026-04-18T10:25:42.933Z</time></trkpt><trkpt lat="45.8053146" lon="10.0473804"><ele>293.0</ele><time>2026-04-18T10:25:43.934Z</time></trkpt><trkpt lat="45.8053697" lon="10.0476095"><ele>293.0</ele><time>2026-04-18T10:25:44.934Z</time></trkpt><trkpt lat="45.8054301" lon="10.0478468"><ele>292.33333333333337</ele><time>2026-04-18T10:25:45.934Z</time></trkpt><trkpt lat="45.8054891" lon="10.0480766"><ele>291.6666666666667</ele><time>2026-04-18T10:25:46.934Z</time></trkpt><trkpt lat="45.8055591" lon="10.0483038"><ele>291.0</ele><time>2026-04-18T10:25:47.934Z</time></trkpt><trkpt lat="45.8056305" lon="10.0485297"><ele>291.0</ele><time>2026-04-18T10:25:48.933Z</time></trkpt><trkpt lat="45.8057147" lon="10.0487525"><ele>291.0</ele><time>2026-04-18T10:25:49.933Z</time></trkpt><trkpt lat="45.8058052" lon="10.0489621"><ele>291.0</ele><time>2026-04-18T10:25:50.935Z</time></trkpt><trkpt lat="45.8059018" lon="10.0491649"><ele>298.0</ele><time>2026-04-18T10:25:51.934Z</time></trkpt><trkpt lat="45.8059997" lon="10.0493686"><ele>305.0</ele><time>2026-04-18T10:25:52.933Z</time></trkpt><trkpt lat="45.8061062" lon="10.0495702"><ele>312.0</ele><time>2026-04-18T10:25:53.933Z</time></trkpt><trkpt lat="45.8062186" lon="10.0497498"><ele>312.0</ele><time>2026-04-18T10:25:54.934Z</time></trkpt><trkpt lat="45.8063307" lon="10.0499338"><ele>312.0</ele><time>2026-04-18T10:25:55.933Z</time></trkpt><trkpt lat="45.8064504" lon="10.0501067"><ele>312.0</ele><time>2026-04-18T10:25:56.934Z</time></trkpt><trkpt lat="45.8065685" lon="10.0502772"><ele>306.3333333333333</ele><time>2026-04-18T10:25:57.934Z</time></trkpt><trkpt lat="45.8066987" lon="10.0504451"><ele>300.66666666666663</ele><time>2026-04-18T10:25:58.933Z</time></trkpt><trkpt lat="45.8068244" lon="10.0506256"><ele>295.0</ele><time>2026-04-18T10:25:59.933Z</time></trkpt><trkpt lat="45.8069509" lon="10.050803"><ele>281.0</ele><time>2026-04-18T10:26:00.934Z</time></trkpt><trkpt lat="45.8084501" lon="10.052529"><ele>276.0</ele><time>2026-04-18T10:26:10.934Z</time></trkpt><trkpt lat="45.8086137" lon="10.0526992"><ele>271.0</ele><time>2026-04-18T10:26:11.933Z</time></trkpt><trkpt lat="45.8086965" lon="10.0529277"><ele>266.0</ele><time>2026-04-18T10:26:12.934Z</time></trkpt><trkpt lat="45.8089076" lon="10.0530819"><ele>266.0</ele><time>2026-04-18T10:26:13.934Z</time></trkpt><trkpt lat="45.8090352" lon="10.0532115"><ele>266.0</ele><time>2026-04-18T10:26:14.934Z</time></trkpt><trkpt lat="45.8090559" lon="10.0533469"><ele>266.0</ele><time>2026-04-18T10:26:15.934Z</time></trkpt><trkpt lat="45.8091865" lon="10.0534851"><ele>266.0</ele><time>2026-04-18T10:26:16.934Z</time></trkpt><trkpt lat="45.8092863" lon="10.0535937"><ele>264.0</ele><time>2026-04-18T10:26:17.933Z</time></trkpt><trkpt lat="45.8094438" lon="10.0537778"><ele>262.0</ele><time>2026-04-18T10:26:18.933Z</time></trkpt><trkpt lat="45.8097098" lon="10.0540301"><ele>260.3333333333333</ele><time>2026-04-18T10:26:19.934Z</time></trkpt><trkpt lat="45.8099121" lon="10.0542025"><ele>258.6666666666667</ele><time>2026-04-18T10:26:20.934Z</time></trkpt><trkpt lat="45.8100606" lon="10.0543763"><ele>257.0</ele><time>2026-04-18T10:26:21.934Z</time></trkpt><trkpt lat="45.8102014" lon="10.0545198"><ele>255.33333333333334</ele><time>2026-04-18T10:26:22.934Z</time></trkpt><trkpt lat="45.8103183" lon="10.0546742"><ele>253.66666666666669</ele><time>2026-04-18T10:26:23.934Z</time></trkpt><trkpt lat="45.810459" lon="10.054812"><ele>252.0</ele><time>2026-04-18T10:26:24.933Z</time></trkpt><trkpt lat="45.8105965" lon="10.0549484"><ele>251.66666666666669</ele><time>2026-04-18T10:26:25.934Z</time></trkpt><trkpt lat="45.8107286" lon="10.0550866"><ele>251.33333333333334</ele><time>2026-04-18T10:26:26.933Z</time></trkpt><trkpt lat="45.8108722" lon="10.055234"><ele>251.0</ele><time>2026-04-18T10:26:27.934Z</time></trkpt><trkpt lat="45.8110161" lon="10.0553876"><ele>251.33333333333334</ele><time>2026-04-18T10:26:28.933Z</time></trkpt><trkpt lat="45.811156" lon="10.0555379"><ele>251.66666666666669</ele><time>2026-04-18T10:26:29.933Z</time></trkpt><trkpt lat="45.8112891" lon="10.0556929"><ele>252.0</ele><time>2026-04-18T10:26:30.933Z</time></trkpt><trkpt lat="45.8114206" lon="10.055846"><ele>252.0</ele><time>2026-04-18T10:26:31.934Z</time></trkpt><trkpt lat="45.8115329" lon="10.0559786"><ele>252.0</ele><time>2026-04-18T10:26:32.933Z</time></trkpt><trkpt lat="45.8116572" lon="10.0561172"><ele>252.0</ele><time>2026-04-18T10:26:33.935Z</time></trkpt><trkpt lat="45.8117704" lon="10.0562767"><ele>256.0</ele><time>2026-04-18T10:26:34.934Z</time></trkpt><trkpt lat="45.8118916" lon="10.0564256"><ele>260.0</ele><time>2026-04-18T10:26:35.934Z</time></trkpt><trkpt lat="45.8120105" lon="10.056578"><ele>264.0</ele><time>2026-04-18T10:26:36.934Z</time></trkpt><trkpt lat="45.8250812" lon="10.0889445"><ele>244.0</ele><time>2026-04-18T10:28:17.914Z</time></trkpt><trkpt lat="45.8251619" lon="10.0875461"><ele>244.0</ele><time>2026-04-18T10:28:24.934Z</time></trkpt><trkpt lat="45.8252962" lon="10.0876829"><ele>244.0</ele><time>2026-04-18T10:28:25.934Z</time></trkpt><trkpt lat="45.8253917" lon="10.0879018"><ele>244.0</ele><time>2026-04-18T10:28:26.933Z</time></trkpt><trkpt lat="45.8388011" lon="10.1074314"><ele>219.0</ele><time>2026-04-18T10:29:56.933Z</time></trkpt><trkpt lat="45.8386503" lon="10.107663"><ele>194.0</ele><time>2026-04-18T10:29:57.933Z</time></trkpt><trkpt lat="45.8384965" lon="10.1079699"><ele>193.5</ele><time>2026-04-18T10:29:58.934Z</time></trkpt><trkpt lat="45.8383705" lon="10.1082809"><ele>193.0</ele><time>2026-04-18T10:29:59.933Z</time></trkpt><trkpt lat="45.8382684" lon="10.1086145"><ele>193.0</ele><time>2026-04-18T10:30:00.933Z</time></trkpt><trkpt lat="45.83815" lon="10.1088982"><ele>193.0</ele><time>2026-04-18T10:30:01.935Z</time></trkpt><trkpt lat="45.8380004" lon="10.1092831"><ele>191.0</ele><time>2026-04-18T10:30:02.933Z</time></trkpt><trkpt lat="45.8378608" lon="10.1096356"><ele>189.0</ele><time>2026-04-18T10:30:03.934Z</time></trkpt><trkpt lat="45.8376884" lon="10.1100299"><ele>191.0</ele><time>2026-04-18T10:30:04.935Z</time></trkpt><trkpt lat="45.8375361" lon="10.1104449"><ele>193.0</ele><time>2026-04-18T10:30:05.933Z</time></trkpt><trkpt lat="45.8373732" lon="10.1108466"><ele>193.0</ele><time>2026-04-18T10:30:06.934Z</time></trkpt><trkpt lat="45.8371765" lon="10.1113296"><ele>193.0</ele><time>2026-04-18T10:30:07.933Z</time></trkpt><trkpt lat="45.8369978" lon="10.1117913"><ele>192.0</ele><time>2026-04-18T10:30:08.933Z</time></trkpt><trkpt lat="45.8368506" lon="10.1121966"><ele>191.0</ele><time>2026-04-18T10:30:09.935Z</time></trkpt><trkpt lat="45.8367111" lon="10.1126265"><ele>191.0</ele><time>2026-04-18T10:30:10.933Z</time></trkpt><trkpt lat="45.836547" lon="10.1130642"><ele>191.0</ele><time>2026-04-18T10:30:11.933Z</time></trkpt><trkpt lat="45.8364094" lon="10.1134583"><ele>191.0</ele><time>2026-04-18T10:30:12.933Z</time></trkpt><trkpt lat="45.8362853" lon="10.1138626"><ele>191.0</ele><time>2026-04-18T10:30:13.933Z</time></trkpt><trkpt lat="45.8361964" lon="10.1142617"><ele>191.5</ele><time>2026-04-18T10:30:14.933Z</time></trkpt><trkpt lat="45.8361072" lon="10.1146809"><ele>192.0</ele><time>2026-04-18T10:30:15.933Z</time></trkpt><trkpt lat="45.8360366" lon="10.1150827"><ele>192.0</ele><time>2026-04-18T10:30:16.934Z</time></trkpt><trkpt lat="45.8359777" lon="10.1155096"><ele>192.0</ele><time>2026-04-18T10:30:17.933Z</time></trkpt><trkpt lat="45.8359676" lon="10.115947"><ele>191.5</ele><time>2026-04-18T10:30:18.933Z</time></trkpt><trkpt lat="45.8359543" lon="10.1163892"><ele>191.0</ele><time>2026-04-18T10:30:19.934Z</time></trkpt><trkpt lat="45.8359661" lon="10.1168245"><ele>191.5</ele><time>2026-04-18T10:30:20.934Z</time></trkpt><trkpt lat="45.835989" lon="10.1172582"><ele>192.0</ele><time>2026-04-18T10:30:21.934Z</time></trkpt><trkpt lat="45.8360679" lon="10.1177139"><ele>192.0</ele><time>2026-04-18T10:30:22.934Z</time></trkpt><trkpt lat="45.836111" lon="10.1181493"><ele>192.0</ele><time>2026-04-18T10:30:23.934Z</time></trkpt><trkpt lat="45.8362209" lon="10.1186084"><ele>192.5</ele><time>2026-04-18T10:30:24.933Z</time></trkpt><trkpt lat="45.8363102" lon="10.1190719"><ele>193.0</ele><time>2026-04-18T10:30:25.933Z</time></trkpt><trkpt lat="45.836404" lon="10.1195336"><ele>193.0</ele><time>2026-04-18T10:30:26.934Z</time></trkpt><trkpt lat="45.8364988" lon="10.1200003"><ele>193.0</ele><time>2026-04-18T10:30:27.934Z</time></trkpt><trkpt lat="45.8365897" lon="10.1204626"><ele>192.5</ele><time>2026-04-18T10:30:28.934Z</time></trkpt><trkpt lat="45.8366944" lon="10.1209398"><ele>192.0</ele><time>2026-04-18T10:30:29.933Z</time></trkpt><trkpt lat="45.8367959" lon="10.1214091"><ele>193.5</ele><time>2026-04-18T10:30:30.934Z</time></trkpt><trkpt lat="45.8368975" lon="10.1218849"><ele>195.0</ele><time>2026-04-18T10:30:31.933Z</time></trkpt><trkpt lat="45.8369958" lon="10.1223568"><ele>194.5</ele><time>2026-04-18T10:30:32.933Z</time></trkpt><trkpt lat="45.837102" lon="10.1228239"><ele>194.0</ele><time>2026-04-18T10:30:33.933Z</time></trkpt><trkpt lat="45.8371974" lon="10.1232727"><ele>194.0</ele><time>2026-04-18T10:30:34.934Z</time></trkpt><trkpt lat="45.8372916" lon="10.1237153"><ele>194.0</ele><time>2026-04-18T10:30:35.933Z</time></trkpt><trkpt lat="45.8373982" lon="10.1241497"><ele>194.0</ele><time>2026-04-18T10:30:36.934Z</time></trkpt><trkpt lat="45.8375091" lon="10.124572"><ele>194.0</ele><time>2026-04-18T10:30:37.934Z</time></trkpt><trkpt lat="45.8376206" lon="10.124974"><ele>193.5</ele><time>2026-04-18T10:30:38.933Z</time></trkpt><trkpt lat="45.8377383" lon="10.1253725"><ele>193.0</ele><time>2026-04-18T10:30:39.934Z</time></trkpt><trkpt lat="45.8378759" lon="10.1257672"><ele>193.0</ele><time>2026-04-18T10:30:40.933Z</time></trkpt><trkpt lat="45.838024" lon="10.1261838"><ele>193.0</ele><time>2026-04-18T10:30:41.964Z</time></trkpt><trkpt lat="45.8383438" lon="10.1269459"><ele>194.0</ele><time>2026-04-18T10:30:43.933Z</time></trkpt><trkpt lat="45.8385104" lon="10.1273028"><ele>195.0</ele><time>2026-04-18T10:30:44.934Z</time></trkpt><trkpt lat="45.8386751" lon="10.1276517"><ele>195.0</ele><time>2026-04-18T10:30:45.933Z</time></trkpt><trkpt lat="45.838842" lon="10.1279915"><ele>195.0</ele><time>2026-04-18T10:30:46.933Z</time></trkpt><trkpt lat="45.839009" lon="10.1283304"><ele>195.0</ele><time>2026-04-18T10:30:47.933Z</time></trkpt><trkpt lat="45.8391629" lon="10.1286633"><ele>195.0</ele><time>2026-04-18T10:30:48.933Z</time></trkpt><trkpt lat="45.8393086" lon="10.1289627"><ele>196.0</ele><time>2026-04-18T10:30:49.935Z</time></trkpt><trkpt lat="45.8394602" lon="10.129266"><ele>197.0</ele><time>2026-04-18T10:30:50.933Z</time></trkpt><trkpt lat="45.8396125" lon="10.1295519"><ele>197.0</ele><time>2026-04-18T10:30:51.934Z</time></trkpt><trkpt lat="45.839752" lon="10.1298278"><ele>197.0</ele><time>2026-04-18T10:30:52.934Z</time></trkpt><trkpt lat="45.8398699" lon="10.1300894"><ele>197.0</ele><time>2026-04-18T10:30:53.934Z</time></trkpt><trkpt lat="45.8399918" lon="10.1303589"><ele>197.0</ele><time>2026-04-18T10:30:54.934Z</time></trkpt><trkpt lat="45.8401149" lon="10.1306238"><ele>197.0</ele><time>2026-04-18T10:30:55.934Z</time></trkpt><trkpt lat="45.8402403" lon="10.130872"><ele>197.0</ele><time>2026-04-18T10:30:56.933Z</time></trkpt><trkpt lat="45.8403643" lon="10.1311173"><ele>197.0</ele><time>2026-04-18T10:30:57.934Z</time></trkpt><trkpt lat="45.8404965" lon="10.1313514"><ele>197.0</ele><time>2026-04-18T10:30:58.935Z</time></trkpt><trkpt lat="45.8406393" lon="10.1315781"><ele>197.0</ele><time>2026-04-18T10:30:59.933Z</time></trkpt><trkpt lat="45.8407886" lon="10.1317855"><ele>197.0</ele><time>2026-04-18T10:31:00.933Z</time></trkpt><trkpt lat="45.8409459" lon="10.1319829"><ele>197.0</ele><time>2026-04-18T10:31:01.933Z</time></trkpt><trkpt lat="45.841112" lon="10.1321679"><ele>197.0</ele><time>2026-04-18T10:31:02.934Z</time></trkpt><trkpt lat="45.8412774" lon="10.1323505"><ele>197.0</ele><time>2026-04-18T10:31:03.934Z</time></trkpt><trkpt lat="45.8414563" lon="10.1325148"><ele>197.0</ele><time>2026-04-18T10:31:04.935Z</time></trkpt><trkpt lat="45.8416396" lon="10.1326776"><ele>197.33333333333334</ele><time>2026-04-18T10:31:05.934Z</time></trkpt><trkpt lat="45.8418151" lon="10.1328379"><ele>197.66666666666669</ele><time>2026-04-18T10:31:06.934Z</time></trkpt><trkpt lat="45.8419875" lon="10.1330064"><ele>198.0</ele><time>2026-04-18T10:31:07.934Z</time></trkpt><trkpt lat="45.8421768" lon="10.1331773"><ele>198.0</ele><time>2026-04-18T10:31:08.934Z</time></trkpt><trkpt lat="45.8423756" lon="10.1333362"><ele>198.0</ele><time>2026-04-18T10:31:09.933Z</time></trkpt><trkpt lat="45.8425876" lon="10.1335095"><ele>196.5</ele><time>2026-04-18T10:31:10.934Z</time></trkpt><trkpt lat="45.8427989" lon="10.1336822"><ele>195.0</ele><time>2026-04-18T10:31:11.934Z</time></trkpt><trkpt lat="45.8430472" lon="10.1338986"><ele>195.0</ele><time>2026-04-18T10:31:12.935Z</time></trkpt><trkpt lat="45.8432823" lon="10.134112"><ele>195.0</ele><time>2026-04-18T10:31:13.933Z</time></trkpt><trkpt lat="45.8435218" lon="10.1343279"><ele>195.0</ele><time>2026-04-18T10:31:14.934Z</time></trkpt><trkpt lat="45.8437693" lon="10.1345419"><ele>195.0</ele><time>2026-04-18T10:31:15.933Z</time></trkpt><trkpt lat="45.8440238" lon="10.1347647"><ele>195.5</ele><time>2026-04-18T10:31:16.933Z</time></trkpt><trkpt lat="45.844277" lon="10.1349922"><ele>196.0</ele><time>2026-04-18T10:31:17.933Z</time></trkpt><trkpt lat="45.8445341" lon="10.13523"><ele>196.5</ele><time>2026-04-18T10:31:18.933Z</time></trkpt><trkpt lat="45.8447832" lon="10.1354458"><ele>197.0</ele><time>2026-04-18T10:31:19.933Z</time></trkpt><trkpt lat="45.8450347" lon="10.1356793"><ele>198.5</ele><time>2026-04-18T10:31:20.934Z</time></trkpt><trkpt lat="45.8452865" lon="10.1359049"><ele>200.0</ele><time>2026-04-18T10:31:21.933Z</time></trkpt><trkpt lat="45.8455355" lon="10.1361201"><ele>200.0</ele><time>2026-04-18T10:31:22.935Z</time></trkpt><trkpt lat="45.8457861" lon="10.136336"><ele>200.0</ele><time>2026-04-18T10:31:23.933Z</time></trkpt><trkpt lat="45.8460289" lon="10.1365573"><ele>200.5</ele><time>2026-04-18T10:31:24.934Z</time></trkpt><trkpt lat="45.8462676" lon="10.1367662"><ele>201.0</ele><time>2026-04-18T10:31:25.934Z</time></trkpt><trkpt lat="45.8465066" lon="10.1369807"><ele>201.0</ele><time>2026-04-18T10:31:26.935Z</time></trkpt><trkpt lat="45.8467429" lon="10.1371927"><ele>201.0</ele><time>2026-04-18T10:31:27.935Z</time></trkpt><trkpt lat="45.8469759" lon="10.1373998"><ele>200.0</ele><time>2026-04-18T10:31:28.935Z</time></trkpt><trkpt lat="45.8472129" lon="10.1376047"><ele>199.0</ele><time>2026-04-18T10:31:29.935Z</time></trkpt><trkpt lat="45.8474457" lon="10.1378108"><ele>198.5</ele><time>2026-04-18T10:31:30.935Z</time></trkpt><trkpt lat="45.8476649" lon="10.1380255"><ele>198.0</ele><time>2026-04-18T10:31:31.934Z</time></trkpt><trkpt lat="45.8478871" lon="10.138236"><ele>198.0</ele><time>2026-04-18T10:31:32.936Z</time></trkpt><trkpt lat="45.8481098" lon="10.1384687"><ele>198.0</ele><time>2026-04-18T10:31:33.935Z</time></trkpt><trkpt lat="45.8482933" lon="10.1386716"><ele>198.0</ele><time>2026-04-18T10:31:34.934Z</time></trkpt><trkpt lat="45.8484632" lon="10.138887"><ele>198.0</ele><time>2026-04-18T10:31:35.935Z</time></trkpt><trkpt lat="45.8486425" lon="10.1390932"><ele>198.0</ele><time>2026-04-18T10:31:36.935Z</time></trkpt><trkpt lat="45.8488143" lon="10.1393162"><ele>198.0</ele><time>2026-04-18T10:31:37.935Z</time></trkpt><trkpt lat="45.8489733" lon="10.1395191"><ele>198.0</ele><time>2026-04-18T10:31:38.934Z</time></trkpt><trkpt lat="45.8491493" lon="10.1397234"><ele>198.33333333333331</ele><time>2026-04-18T10:31:39.934Z</time></trkpt><trkpt lat="45.8493135" lon="10.1399287"><ele>198.66666666666666</ele><time>2026-04-18T10:31:40.934Z</time></trkpt><trkpt lat="45.8494824" lon="10.1401343"><ele>199.0</ele><time>2026-04-18T10:31:41.934Z</time></trkpt><trkpt lat="45.8496682" lon="10.1403427"><ele>199.0</ele><time>2026-04-18T10:31:42.935Z</time></trkpt><trkpt lat="45.8498858" lon="10.1406146"><ele>199.0</ele><time>2026-04-18T10:31:43.935Z</time></trkpt><trkpt lat="45.8500872" lon="10.1408987"><ele>198.5</ele><time>2026-04-18T10:31:44.935Z</time></trkpt><trkpt lat="45.8503012" lon="10.1411623"><ele>198.0</ele><time>2026-04-18T10:31:45.935Z</time></trkpt><trkpt lat="45.8505102" lon="10.1414322"><ele>199.5</ele><time>2026-04-18T10:31:46.934Z</time></trkpt><trkpt lat="45.8507244" lon="10.1417019"><ele>201.0</ele><time>2026-04-18T10:31:47.935Z</time></trkpt><trkpt lat="45.8509086" lon="10.1419305"><ele>201.5</ele><time>2026-04-18T10:31:48.935Z</time></trkpt><trkpt lat="45.8510979" lon="10.1421641"><ele>202.0</ele><time>2026-04-18T10:31:49.934Z</time></trkpt><trkpt lat="45.8512781" lon="10.142378"><ele>202.0</ele><time>2026-04-18T10:31:50.934Z</time></trkpt><trkpt lat="45.8514548" lon="10.1425913"><ele>202.0</ele><time>2026-04-18T10:31:51.934Z</time></trkpt><trkpt lat="45.8516334" lon="10.1428132"><ele>201.5</ele><time>2026-04-18T10:31:52.934Z</time></trkpt><trkpt lat="45.8518124" lon="10.1430391"><ele>201.0</ele><time>2026-04-18T10:31:53.934Z</time></trkpt><trkpt lat="45.8519969" lon="10.1432732"><ele>201.0</ele><time>2026-04-18T10:31:54.935Z</time></trkpt><trkpt lat="45.852178" lon="10.1435014"><ele>201.0</ele><time>2026-04-18T10:31:55.934Z</time></trkpt><trkpt lat="45.8523554" lon="10.1437185"><ele>201.0</ele><time>2026-04-18T10:31:56.935Z</time></trkpt><trkpt lat="45.8525268" lon="10.143949"><ele>201.0</ele><time>2026-04-18T10:31:57.934Z</time></trkpt><trkpt lat="45.852706" lon="10.1441746"><ele>202.5</ele><time>2026-04-18T10:31:58.935Z</time></trkpt><trkpt lat="45.8529117" lon="10.1444123"><ele>204.0</ele><time>2026-04-18T10:31:59.934Z</time></trkpt><trkpt lat="45.8531149" lon="10.1446624"><ele>204.5</ele><time>2026-04-18T10:32:00.935Z</time></trkpt><trkpt lat="45.853315" lon="10.1449356"><ele>205.0</ele><time>2026-04-18T10:32:01.934Z</time></trkpt><trkpt lat="45.8535339" lon="10.1452076"><ele>203.5</ele><time>2026-04-18T10:32:02.935Z</time></trkpt><trkpt lat="45.8537385" lon="10.1454754"><ele>202.0</ele><time>2026-04-18T10:32:03.934Z</time></trkpt><trkpt lat="45.8539646" lon="10.1457546"><ele>202.0</ele><time>2026-04-18T10:32:04.934Z</time></trkpt><trkpt lat="45.8541767" lon="10.1460101"><ele>202.0</ele><time>2026-04-18T10:32:05.934Z</time></trkpt><trkpt lat="45.8543811" lon="10.1462784"><ele>203.0</ele><time>2026-04-18T10:32:06.935Z</time></trkpt><trkpt lat="45.8546034" lon="10.1465649"><ele>204.0</ele><time>2026-04-18T10:32:07.935Z</time></trkpt><trkpt lat="45.8548263" lon="10.1468398"><ele>204.0</ele><time>2026-04-18T10:32:08.934Z</time></trkpt><trkpt lat="45.8550521" lon="10.1471289"><ele>204.0</ele><time>2026-04-18T10:32:09.934Z</time></trkpt><trkpt lat="45.8552754" lon="10.1474104"><ele>204.0</ele><time>2026-04-18T10:32:10.934Z</time></trkpt><trkpt lat="45.8554946" lon="10.1476852"><ele>204.0</ele><time>2026-04-18T10:32:11.936Z</time></trkpt><trkpt lat="45.855718" lon="10.1479721"><ele>203.5</ele><time>2026-04-18T10:32:12.935Z</time></trkpt><trkpt lat="45.8559464" lon="10.1482496"><ele>203.0</ele><time>2026-04-18T10:32:13.934Z</time></trkpt><trkpt lat="45.8561802" lon="10.1485413"><ele>203.0</ele><time>2026-04-18T10:32:14.934Z</time></trkpt><trkpt lat="45.8564316" lon="10.1488314"><ele>203.0</ele><time>2026-04-18T10:32:15.935Z</time></trkpt><trkpt lat="45.8566875" lon="10.1491583"><ele>202.5</ele><time>2026-04-18T10:32:16.934Z</time></trkpt><trkpt lat="45.8569237" lon="10.1494656"><ele>202.0</ele><time>2026-04-18T10:32:17.935Z</time></trkpt><trkpt lat="45.8571544" lon="10.149779"><ele>202.0</ele><time>2026-04-18T10:32:18.934Z</time></trkpt><trkpt lat="45.8573869" lon="10.1500855"><ele>202.0</ele><time>2026-04-18T10:32:19.935Z</time></trkpt><trkpt lat="45.8576251" lon="10.1503826"><ele>202.0</ele><time>2026-04-18T10:32:20.934Z</time></trkpt><trkpt lat="45.8578449" lon="10.1506627"><ele>202.0</ele><time>2026-04-18T10:32:21.936Z</time></trkpt><trkpt lat="45.8580645" lon="10.1509467"><ele>202.5</ele><time>2026-04-18T10:32:22.935Z</time></trkpt><trkpt lat="45.8582819" lon="10.1512178"><ele>203.0</ele><time>2026-04-18T10:32:23.934Z</time></trkpt><trkpt lat="45.8585062" lon="10.1514991"><ele>203.0</ele><time>2026-04-18T10:32:24.934Z</time></trkpt><trkpt lat="45.8587198" lon="10.1517762"><ele>203.0</ele><time>2026-04-18T10:32:25.935Z</time></trkpt><trkpt lat="45.8589331" lon="10.1520481"><ele>203.0</ele><time>2026-04-18T10:32:26.935Z</time></trkpt><trkpt lat="45.8591531" lon="10.1523163"><ele>203.0</ele><time>2026-04-18T10:32:27.935Z</time></trkpt><trkpt lat="45.8593592" lon="10.1525764"><ele>203.5</ele><time>2026-04-18T10:32:28.935Z</time></trkpt><trkpt lat="45.8595629" lon="10.1528181"><ele>204.0</ele><time>2026-04-18T10:32:29.934Z</time></trkpt><trkpt lat="45.8597632" lon="10.1530535"><ele>204.5</ele><time>2026-04-18T10:32:30.934Z</time></trkpt><trkpt lat="45.8599509" lon="10.1532819"><ele>205.0</ele><time>2026-04-18T10:32:31.935Z</time></trkpt><trkpt lat="45.8601452" lon="10.1535084"><ele>205.0</ele><time>2026-04-18T10:32:32.934Z</time></trkpt><trkpt lat="45.8603338" lon="10.1537239"><ele>205.0</ele><time>2026-04-18T10:32:33.935Z</time></trkpt><trkpt lat="45.8605278" lon="10.1539245"><ele>205.5</ele><time>2026-04-18T10:32:34.934Z</time></trkpt><trkpt lat="45.86072" lon="10.1541197"><ele>206.0</ele><time>2026-04-18T10:32:35.935Z</time></trkpt><trkpt lat="45.8609128" lon="10.1543096"><ele>205.5</ele><time>2026-04-18T10:32:36.935Z</time></trkpt><trkpt lat="45.8611019" lon="10.1544871"><ele>205.0</ele><time>2026-04-18T10:32:37.935Z</time></trkpt><trkpt lat="45.8612966" lon="10.154657"><ele>205.0</ele><time>2026-04-18T10:32:38.934Z</time></trkpt><trkpt lat="45.8614945" lon="10.1548282"><ele>205.0</ele><time>2026-04-18T10:32:39.934Z</time></trkpt><trkpt lat="45.8616891" lon="10.1549996"><ele>204.5</ele><time>2026-04-18T10:32:40.934Z</time></trkpt><trkpt lat="45.8618876" lon="10.1551542"><ele>204.0</ele><time>2026-04-18T10:32:41.935Z</time></trkpt><trkpt lat="45.8620946" lon="10.1552972"><ele>204.0</ele><time>2026-04-18T10:32:42.935Z</time></trkpt><trkpt lat="45.8623249" lon="10.1554548"><ele>204.0</ele><time>2026-04-18T10:32:43.934Z</time></trkpt><trkpt lat="45.8625671" lon="10.155621"><ele>204.0</ele><time>2026-04-18T10:32:44.935Z</time></trkpt><trkpt lat="45.8627955" lon="10.1557872"><ele>204.0</ele><time>2026-04-18T10:32:45.935Z</time></trkpt><trkpt lat="45.8630191" lon="10.1559361"><ele>204.0</ele><time>2026-04-18T10:32:46.935Z</time></trkpt><trkpt lat="45.8632391" lon="10.1560851"><ele>204.0</ele><time>2026-04-18T10:32:47.934Z</time></trkpt><trkpt lat="45.8634803" lon="10.1562386"><ele>204.0</ele><time>2026-04-18T10:32:48.935Z</time></trkpt><trkpt lat="45.8637172" lon="10.1564058"><ele>204.0</ele><time>2026-04-18T10:32:49.934Z</time></trkpt><trkpt lat="45.8639626" lon="10.1565747"><ele>204.0</ele><time>2026-04-18T10:32:50.935Z</time></trkpt><trkpt lat="45.8642187" lon="10.1567332"><ele>204.0</ele><time>2026-04-18T10:32:51.934Z</time></trkpt><trkpt lat="45.8644673" lon="10.1568878"><ele>204.0</ele><time>2026-04-18T10:32:52.934Z</time></trkpt><trkpt lat="45.8647085" lon="10.1570531"><ele>204.0</ele><time>2026-04-18T10:32:53.935Z</time></trkpt><trkpt lat="45.8649537" lon="10.1572129"><ele>206.0</ele><time>2026-04-18T10:32:54.934Z</time></trkpt><trkpt lat="45.8651958" lon="10.1573764"><ele>208.0</ele><time>2026-04-18T10:32:55.935Z</time></trkpt><trkpt lat="45.865439" lon="10.1575494"><ele>208.0</ele><time>2026-04-18T10:32:56.935Z</time></trkpt><trkpt lat="45.8657214" lon="10.1577052"><ele>208.0</ele><time>2026-04-18T10:32:57.934Z</time></trkpt><trkpt lat="45.8659866" lon="10.1579036"><ele>208.0</ele><time>2026-04-18T10:32:58.936Z</time></trkpt><trkpt lat="45.8662618" lon="10.1580976"><ele>208.0</ele><time>2026-04-18T10:32:59.934Z</time></trkpt><trkpt lat="45.8665325" lon="10.1582825"><ele>206.5</ele><time>2026-04-18T10:33:00.935Z</time></trkpt><trkpt lat="45.866812" lon="10.1584475"><ele>205.0</ele><time>2026-04-18T10:33:01.935Z</time></trkpt><trkpt lat="45.8670979" lon="10.1586122"><ele>205.0</ele><time>2026-04-18T10:33:02.935Z</time></trkpt><trkpt lat="45.8673729" lon="10.1587932"><ele>205.0</ele><time>2026-04-18T10:33:03.934Z</time></trkpt><trkpt lat="45.8676379" lon="10.1589645"><ele>205.5</ele><time>2026-04-18T10:33:04.934Z</time></trkpt><trkpt lat="45.8679074" lon="10.1591632"><ele>206.0</ele><time>2026-04-18T10:33:05.936Z</time></trkpt><trkpt lat="45.8681821" lon="10.159344"><ele>204.0</ele><time>2026-04-18T10:33:06.935Z</time></trkpt><trkpt lat="45.8684514" lon="10.1595237"><ele>202.0</ele><time>2026-04-18T10:33:07.934Z</time></trkpt><trkpt lat="45.8687218" lon="10.1597013"><ele>202.0</ele><time>2026-04-18T10:33:08.934Z</time></trkpt><trkpt lat="45.8689908" lon="10.1598667"><ele>202.0</ele><time>2026-04-18T10:33:09.935Z</time></trkpt><trkpt lat="45.8692533" lon="10.1600389"><ele>203.5</ele><time>2026-04-18T10:33:10.935Z</time></trkpt><trkpt lat="45.8695068" lon="10.160216"><ele>205.0</ele><time>2026-04-18T10:33:11.934Z</time></trkpt><trkpt lat="45.8697518" lon="10.1603762"><ele>205.0</ele><time>2026-04-18T10:33:12.935Z</time></trkpt><trkpt lat="45.8699893" lon="10.1605335"><ele>205.0</ele><time>2026-04-18T10:33:13.934Z</time></trkpt><trkpt lat="45.8702172" lon="10.1606869"><ele>205.5</ele><time>2026-04-18T10:33:14.935Z</time></trkpt><trkpt lat="45.8704231" lon="10.1608966"><ele>206.0</ele><time>2026-04-18T10:33:15.935Z</time></trkpt><trkpt lat="45.8706406" lon="10.1611155"><ele>206.0</ele><time>2026-04-18T10:33:16.934Z</time></trkpt><trkpt lat="45.8708447" lon="10.1613494"><ele>206.0</ele><time>2026-04-18T10:33:17.935Z</time></trkpt><trkpt lat="45.8710342" lon="10.1616009"><ele>207.0</ele><time>2026-04-18T10:33:18.935Z</time></trkpt><trkpt lat="45.8712146" lon="10.1618759"><ele>208.0</ele><time>2026-04-18T10:33:19.934Z</time></trkpt><trkpt lat="45.8713777" lon="10.1621523"><ele>207.5</ele><time>2026-04-18T10:33:20.935Z</time></trkpt><trkpt lat="45.8715251" lon="10.1624271"><ele>207.0</ele><time>2026-04-18T10:33:21.934Z</time></trkpt><trkpt lat="45.8716585" lon="10.1627067"><ele>206.0</ele><time>2026-04-18T10:33:22.935Z</time></trkpt><trkpt lat="45.8717773" lon="10.1629986"><ele>205.0</ele><time>2026-04-18T10:33:23.934Z</time></trkpt><trkpt lat="45.8718814" lon="10.1632857"><ele>205.0</ele><time>2026-04-18T10:33:24.934Z</time></trkpt><trkpt lat="45.8719707" lon="10.1635936"><ele>205.0</ele><time>2026-04-18T10:33:25.934Z</time></trkpt><trkpt lat="45.8720505" lon="10.1638971"><ele>206.0</ele><time>2026-04-18T10:33:26.935Z</time></trkpt><trkpt lat="45.8721094" lon="10.164199"><ele>207.0</ele><time>2026-04-18T10:33:27.935Z</time></trkpt><trkpt lat="45.872168" lon="10.164487"><ele>208.0</ele><time>2026-04-18T10:33:28.936Z</time></trkpt><trkpt lat="45.8722057" lon="10.1647748"><ele>208.66666666666666</ele><time>2026-04-18T10:33:29.934Z</time></trkpt><trkpt lat="45.8722459" lon="10.1650729"><ele>209.33333333333331</ele><time>2026-04-18T10:33:30.935Z</time></trkpt><trkpt lat="45.8722647" lon="10.1653657"><ele>210.0</ele><time>2026-04-18T10:33:31.935Z</time></trkpt><trkpt lat="45.87227" lon="10.1656623"><ele>210.0</ele><time>2026-04-18T10:33:32.935Z</time></trkpt><trkpt lat="45.8722746" lon="10.1659732"><ele>210.0</ele><time>2026-04-18T10:33:33.935Z</time></trkpt><trkpt lat="45.8722691" lon="10.1662938"><ele>210.0</ele><time>2026-04-18T10:33:34.934Z</time></trkpt><trkpt lat="45.8722671" lon="10.1666532"><ele>210.0</ele><time>2026-04-18T10:33:35.934Z</time></trkpt><trkpt lat="45.8722611" lon="10.1670197"><ele>210.0</ele><time>2026-04-18T10:33:36.934Z</time></trkpt><trkpt lat="45.8722295" lon="10.1674529"><ele>210.5</ele><time>2026-04-18T10:33:37.935Z</time></trkpt><trkpt lat="45.8722138" lon="10.1679067"><ele>211.0</ele><time>2026-04-18T10:33:38.934Z</time></trkpt><trkpt lat="45.8721903" lon="10.1683454"><ele>212.5</ele><time>2026-04-18T10:33:39.935Z</time></trkpt><trkpt lat="45.8721533" lon="10.1688005"><ele>214.0</ele><time>2026-04-18T10:33:40.934Z</time></trkpt><trkpt lat="45.8721188" lon="10.1693307"><ele>214.0</ele><time>2026-04-18T10:33:41.935Z</time></trkpt><trkpt lat="45.872083" lon="10.1698427"><ele>214.0</ele><time>2026-04-18T10:33:42.935Z</time></trkpt><trkpt lat="45.8720596" lon="10.1703556"><ele>214.0</ele><time>2026-04-18T10:33:43.934Z</time></trkpt><trkpt lat="45.8720203" lon="10.170854"><ele>214.0</ele><time>2026-04-18T10:33:44.935Z</time></trkpt><trkpt lat="45.8719768" lon="10.1713369"><ele>214.0</ele><time>2026-04-18T10:33:45.935Z</time></trkpt><trkpt lat="45.8719689" lon="10.1718495"><ele>214.0</ele><time>2026-04-18T10:33:46.935Z</time></trkpt><trkpt lat="45.8719284" lon="10.1722934"><ele>216.0</ele><time>2026-04-18T10:33:47.935Z</time></trkpt><trkpt lat="45.8719037" lon="10.1727502"><ele>218.0</ele><time>2026-04-18T10:33:48.935Z</time></trkpt><trkpt lat="45.8718827" lon="10.1731859"><ele>219.0</ele><time>2026-04-18T10:33:49.934Z</time></trkpt><trkpt lat="45.8718499" lon="10.1736107"><ele>220.0</ele><time>2026-04-18T10:33:50.935Z</time></trkpt><trkpt lat="45.871831" lon="10.1740346"><ele>221.0</ele><time>2026-04-18T10:33:51.935Z</time></trkpt><trkpt lat="45.8718007" lon="10.1744527"><ele>222.0</ele><time>2026-04-18T10:33:52.934Z</time></trkpt><trkpt lat="45.8717737" lon="10.1748738"><ele>222.5</ele><time>2026-04-18T10:33:53.934Z</time></trkpt><trkpt lat="45.8717737" lon="10.1752808"><ele>223.0</ele><time>2026-04-18T10:33:54.936Z</time></trkpt><trkpt lat="45.8717748" lon="10.1756814"><ele>225.0</ele><time>2026-04-18T10:33:55.935Z</time></trkpt><trkpt lat="45.87182" lon="10.1761318"><ele>227.0</ele><time>2026-04-18T10:33:56.934Z</time></trkpt><trkpt lat="45.871851" lon="10.1765191"><ele>229.0</ele><time>2026-04-18T10:33:57.936Z</time></trkpt><trkpt lat="45.8719573" lon="10.1769332"><ele>231.0</ele><time>2026-04-18T10:33:58.935Z</time></trkpt><trkpt lat="45.8720452" lon="10.1773203"><ele>233.0</ele><time>2026-04-18T10:33:59.934Z</time></trkpt><trkpt lat="45.8721525" lon="10.177713"><ele>235.0</ele><time>2026-04-18T10:34:00.934Z</time></trkpt><trkpt lat="45.8722761" lon="10.1780966"><ele>235.0</ele><time>2026-04-18T10:34:01.934Z</time></trkpt><trkpt lat="45.8724034" lon="10.1784667"><ele>235.0</ele><time>2026-04-18T10:34:02.935Z</time></trkpt><trkpt lat="45.8725721" lon="10.1788434"><ele>236.0</ele><time>2026-04-18T10:34:03.934Z</time></trkpt><trkpt lat="45.8727508" lon="10.1791941"><ele>237.0</ele><time>2026-04-18T10:34:04.935Z</time></trkpt><trkpt lat="45.8729489" lon="10.1795416"><ele>241.0</ele><time>2026-04-18T10:34:05.934Z</time></trkpt><trkpt lat="45.8731526" lon="10.1798705"><ele>245.0</ele><time>2026-04-18T10:34:06.934Z</time></trkpt><trkpt lat="45.873346" lon="10.1801819"><ele>243.0</ele><time>2026-04-18T10:34:07.935Z</time></trkpt><trkpt lat="45.8735376" lon="10.1804626"><ele>241.0</ele><time>2026-04-18T10:34:08.935Z</time></trkpt><trkpt lat="45.8737179" lon="10.1807394"><ele>241.0</ele><time>2026-04-18T10:34:09.935Z</time></trkpt><trkpt lat="45.8738828" lon="10.1809972"><ele>241.0</ele><time>2026-04-18T10:34:10.935Z</time></trkpt><trkpt lat="45.8740634" lon="10.181258"><ele>242.5</ele><time>2026-04-18T10:34:11.935Z</time></trkpt><trkpt lat="45.874232" lon="10.1815166"><ele>244.0</ele><time>2026-04-18T10:34:12.935Z</time></trkpt><trkpt lat="45.8743968" lon="10.1817582"><ele>243.33333333333331</ele><time>2026-04-18T10:34:13.935Z</time></trkpt><trkpt lat="45.8745482" lon="10.1819958"><ele>242.66666666666669</ele><time>2026-04-18T10:34:14.935Z</time></trkpt><trkpt lat="45.8747065" lon="10.1822206"><ele>242.0</ele><time>2026-04-18T10:34:15.935Z</time></trkpt><trkpt lat="45.8748624" lon="10.182459"><ele>242.0</ele><time>2026-04-18T10:34:16.935Z</time></trkpt><trkpt lat="45.8750305" lon="10.1827234"><ele>242.0</ele><time>2026-04-18T10:34:17.934Z</time></trkpt><trkpt lat="45.8751948" lon="10.1829313"><ele>241.0</ele><time>2026-04-18T10:34:18.934Z</time></trkpt><trkpt lat="45.8753529" lon="10.1831847"><ele>240.0</ele><time>2026-04-18T10:34:19.934Z</time></trkpt><trkpt lat="45.8755013" lon="10.1834053"><ele>240.0</ele><time>2026-04-18T10:34:20.934Z</time></trkpt><trkpt lat="45.8756395" lon="10.1836619"><ele>240.0</ele><time>2026-04-18T10:34:21.935Z</time></trkpt><trkpt lat="45.8758111" lon="10.1839385"><ele>240.0</ele><time>2026-04-18T10:34:22.935Z</time></trkpt><trkpt lat="45.8759616" lon="10.1841924"><ele>240.0</ele><time>2026-04-18T10:34:23.935Z</time></trkpt><trkpt lat="45.876104" lon="10.1844203"><ele>240.0</ele><time>2026-04-18T10:34:24.935Z</time></trkpt><trkpt lat="45.876236" lon="10.1846543"><ele>241.33333333333331</ele><time>2026-04-18T10:34:25.934Z</time></trkpt><trkpt lat="45.8763778" lon="10.1848848"><ele>242.66666666666666</ele><time>2026-04-18T10:34:26.934Z</time></trkpt><trkpt lat="45.8765209" lon="10.1850969"><ele>244.0</ele><time>2026-04-18T10:34:27.935Z</time></trkpt><trkpt lat="45.8766792" lon="10.185334"><ele>243.0</ele><time>2026-04-18T10:34:28.934Z</time></trkpt><trkpt lat="45.8768462" lon="10.1855768"><ele>242.0</ele><time>2026-04-18T10:34:29.935Z</time></trkpt><trkpt lat="45.8769931" lon="10.1858114"><ele>242.0</ele><time>2026-04-18T10:34:30.934Z</time></trkpt><trkpt lat="45.8771379" lon="10.1860583"><ele>242.0</ele><time>2026-04-18T10:34:31.935Z</time></trkpt><trkpt lat="45.8772743" lon="10.1862715"><ele>242.0</ele><time>2026-04-18T10:34:32.935Z</time></trkpt><trkpt lat="45.8774198" lon="10.1865138"><ele>242.0</ele><time>2026-04-18T10:34:33.935Z</time></trkpt><trkpt lat="45.8775631" lon="10.1867322"><ele>242.0</ele><time>2026-04-18T10:34:34.934Z</time></trkpt><trkpt lat="45.877712" lon="10.1869477"><ele>242.0</ele><time>2026-04-18T10:34:35.934Z</time></trkpt><trkpt lat="45.8778548" lon="10.1871446"><ele>242.0</ele><time>2026-04-18T10:34:36.935Z</time></trkpt><trkpt lat="45.8779914" lon="10.1873324"><ele>242.0</ele><time>2026-04-18T10:34:37.935Z</time></trkpt><trkpt lat="45.8781292" lon="10.1875219"><ele>242.0</ele><time>2026-04-18T10:34:38.935Z</time></trkpt><trkpt lat="45.878267" lon="10.1876955"><ele>241.66666666666669</ele><time>2026-04-18T10:34:39.936Z</time></trkpt><trkpt lat="45.8784076" lon="10.1878655"><ele>241.33333333333331</ele><time>2026-04-18T10:34:40.934Z</time></trkpt><trkpt lat="45.8785536" lon="10.1880275"><ele>241.0</ele><time>2026-04-18T10:34:41.934Z</time></trkpt><trkpt lat="45.8787044" lon="10.1881951"><ele>241.0</ele><time>2026-04-18T10:34:42.935Z</time></trkpt><trkpt lat="45.8788594" lon="10.1883556"><ele>241.0</ele><time>2026-04-18T10:34:43.934Z</time></trkpt><trkpt lat="45.8790175" lon="10.1885186"><ele>241.0</ele><time>2026-04-18T10:34:44.934Z</time></trkpt><trkpt lat="45.8791701" lon="10.1886818"><ele>241.33333333333331</ele><time>2026-04-18T10:34:45.935Z</time></trkpt><trkpt lat="45.879324" lon="10.1888425"><ele>241.66666666666669</ele><time>2026-04-18T10:34:46.935Z</time></trkpt><trkpt lat="45.8794858" lon="10.1889981"><ele>242.0</ele><time>2026-04-18T10:34:47.935Z</time></trkpt><trkpt lat="45.8796449" lon="10.1891571"><ele>242.0</ele><time>2026-04-18T10:34:48.934Z</time></trkpt><trkpt lat="45.8798118" lon="10.1893302"><ele>242.0</ele><time>2026-04-18T10:34:49.935Z</time></trkpt><trkpt lat="45.8799752" lon="10.1894885"><ele>242.0</ele><time>2026-04-18T10:34:50.935Z</time></trkpt><trkpt lat="45.8801369" lon="10.1896402"><ele>241.66666666666669</ele><time>2026-04-18T10:34:51.935Z</time></trkpt><trkpt lat="45.8802954" lon="10.1897967"><ele>241.33333333333331</ele><time>2026-04-18T10:34:52.934Z</time></trkpt><trkpt lat="45.8804462" lon="10.1899449"><ele>241.0</ele><time>2026-04-18T10:34:53.935Z</time></trkpt><trkpt lat="45.8805982" lon="10.1900982"><ele>241.0</ele><time>2026-04-18T10:34:54.934Z</time></trkpt><trkpt lat="45.8807493" lon="10.1902517"><ele>241.0</ele><time>2026-04-18T10:34:55.935Z</time></trkpt><trkpt lat="45.8808865" lon="10.1904065"><ele>241.0</ele><time>2026-04-18T10:34:56.934Z</time></trkpt><trkpt lat="45.8810303" lon="10.1905441"><ele>241.0</ele><time>2026-04-18T10:34:57.935Z</time></trkpt><trkpt lat="45.8811665" lon="10.1906953"><ele>241.0</ele><time>2026-04-18T10:34:58.934Z</time></trkpt><trkpt lat="45.881311" lon="10.1908359"><ele>241.0</ele><time>2026-04-18T10:34:59.934Z</time></trkpt><trkpt lat="45.8814547" lon="10.19098"><ele>241.0</ele><time>2026-04-18T10:35:00.935Z</time></trkpt><trkpt lat="45.8815848" lon="10.1911125"><ele>241.0</ele><time>2026-04-18T10:35:01.935Z</time></trkpt><trkpt lat="45.8817196" lon="10.1912483"><ele>241.0</ele><time>2026-04-18T10:35:02.935Z</time></trkpt><trkpt lat="45.881848" lon="10.1913771"><ele>240.0</ele><time>2026-04-18T10:35:03.934Z</time></trkpt><trkpt lat="45.8819714" lon="10.1915145"><ele>239.0</ele><time>2026-04-18T10:35:04.936Z</time></trkpt><trkpt lat="45.8820934" lon="10.191663"><ele>238.0</ele><time>2026-04-18T10:35:05.935Z</time></trkpt><trkpt lat="45.8822169" lon="10.1918133"><ele>238.0</ele><time>2026-04-18T10:35:06.936Z</time></trkpt><trkpt lat="45.8823375" lon="10.191968"><ele>238.0</ele><time>2026-04-18T10:35:07.935Z</time></trkpt><trkpt lat="45.8824583" lon="10.1921398"><ele>238.0</ele><time>2026-04-18T10:35:08.935Z</time></trkpt><trkpt lat="45.8825693" lon="10.1923187"><ele>237.33333333333331</ele><time>2026-04-18T10:35:09.934Z</time></trkpt><trkpt lat="45.8826861" lon="10.1925093"><ele>236.66666666666669</ele><time>2026-04-18T10:35:10.935Z</time></trkpt><trkpt lat="45.8827895" lon="10.192696"><ele>236.0</ele><time>2026-04-18T10:35:11.935Z</time></trkpt><trkpt lat="45.8828882" lon="10.1928856"><ele>236.0</ele><time>2026-04-18T10:35:12.934Z</time></trkpt><trkpt lat="45.8829917" lon="10.1930889"><ele>236.0</ele><time>2026-04-18T10:35:13.936Z</time></trkpt><trkpt lat="45.8830879" lon="10.1933057"><ele>236.0</ele><time>2026-04-18T10:35:14.935Z</time></trkpt><trkpt lat="45.8831894" lon="10.1935336"><ele>235.33333333333334</ele><time>2026-04-18T10:35:15.934Z</time></trkpt><trkpt lat="45.8832945" lon="10.1937711"><ele>234.66666666666669</ele><time>2026-04-18T10:35:16.934Z</time></trkpt><trkpt lat="45.8833957" lon="10.1939896"><ele>234.0</ele><time>2026-04-18T10:35:17.934Z</time></trkpt><trkpt lat="45.8834798" lon="10.1942049"><ele>234.0</ele><time>2026-04-18T10:35:18.934Z</time></trkpt><trkpt lat="45.8835828" lon="10.194429"><ele>234.0</ele><time>2026-04-18T10:35:19.935Z</time></trkpt><trkpt lat="45.8836925" lon="10.1946871"><ele>234.0</ele><time>2026-04-18T10:35:20.935Z</time></trkpt><trkpt lat="45.8838154" lon="10.1949624"><ele>237.0</ele><time>2026-04-18T10:35:21.935Z</time></trkpt><trkpt lat="45.883929" lon="10.1952446"><ele>240.0</ele><time>2026-04-18T10:35:22.935Z</time></trkpt><trkpt lat="45.8840551" lon="10.1955424"><ele>240.33333333333331</ele><time>2026-04-18T10:35:23.934Z</time></trkpt><trkpt lat="45.8841696" lon="10.1957881"><ele>240.66666666666666</ele><time>2026-04-18T10:35:24.935Z</time></trkpt><trkpt lat="45.884283" lon="10.1960244"><ele>241.0</ele><time>2026-04-18T10:35:25.934Z</time></trkpt><trkpt lat="45.8844181" lon="10.1962518"><ele>239.0</ele><time>2026-04-18T10:35:26.934Z</time></trkpt><trkpt lat="45.8845591" lon="10.1964543"><ele>237.0</ele><time>2026-04-18T10:35:27.934Z</time></trkpt><trkpt lat="45.8847122" lon="10.1966433"><ele>235.0</ele><time>2026-04-18T10:35:28.935Z</time></trkpt><trkpt lat="45.8848731" lon="10.1968276"><ele>235.0</ele><time>2026-04-18T10:35:29.936Z</time></trkpt><trkpt lat="45.885035" lon="10.197004"><ele>235.0</ele><time>2026-04-18T10:35:30.935Z</time></trkpt><trkpt lat="45.8852146" lon="10.1971756"><ele>235.0</ele><time>2026-04-18T10:35:31.935Z</time></trkpt><trkpt lat="45.8853884" lon="10.1973269"><ele>230.5</ele><time>2026-04-18T10:35:32.935Z</time></trkpt><trkpt lat="45.8856294" lon="10.1974896"><ele>226.0</ele><time>2026-04-18T10:35:33.934Z</time></trkpt><trkpt lat="45.885884" lon="10.1976248"><ele>224.0</ele><time>2026-04-18T10:35:34.934Z</time></trkpt><trkpt lat="45.886137" lon="10.1977455"><ele>222.0</ele><time>2026-04-18T10:35:35.935Z</time></trkpt><trkpt lat="45.8863615" lon="10.1978762"><ele>222.0</ele><time>2026-04-18T10:35:36.934Z</time></trkpt><trkpt lat="45.8865796" lon="10.1980083"><ele>222.0</ele><time>2026-04-18T10:35:37.935Z</time></trkpt><trkpt lat="45.8867972" lon="10.1981089"><ele>221.66666666666669</ele><time>2026-04-18T10:35:38.935Z</time></trkpt><trkpt lat="45.8869979" lon="10.198237"><ele>221.33333333333334</ele><time>2026-04-18T10:35:39.936Z</time></trkpt><trkpt lat="45.8872014" lon="10.1983507"><ele>221.0</ele><time>2026-04-18T10:35:40.935Z</time></trkpt><trkpt lat="45.8874022" lon="10.1984689"><ele>221.0</ele><time>2026-04-18T10:35:41.935Z</time></trkpt><trkpt lat="45.8875947" lon="10.1985829"><ele>221.0</ele><time>2026-04-18T10:35:42.935Z</time></trkpt><trkpt lat="45.8877939" lon="10.1986813"><ele>221.0</ele><time>2026-04-18T10:35:43.935Z</time></trkpt><trkpt lat="45.8879817" lon="10.1987871"><ele>221.0</ele><time>2026-04-18T10:35:44.935Z</time></trkpt><trkpt lat="45.8881978" lon="10.1988911"><ele>221.0</ele><time>2026-04-18T10:35:45.935Z</time></trkpt><trkpt lat="45.8884158" lon="10.1989907"><ele>221.5</ele><time>2026-04-18T10:35:46.935Z</time></trkpt><trkpt lat="45.8886316" lon="10.1991147"><ele>222.0</ele><time>2026-04-18T10:35:47.934Z</time></trkpt><trkpt lat="45.8888465" lon="10.1992351"><ele>222.0</ele><time>2026-04-18T10:35:48.935Z</time></trkpt><trkpt lat="45.8890524" lon="10.1993466"><ele>222.0</ele><time>2026-04-18T10:35:49.935Z</time></trkpt><trkpt lat="45.8892416" lon="10.1994528"><ele>222.0</ele><time>2026-04-18T10:35:50.934Z</time></trkpt><trkpt lat="45.8894265" lon="10.1995642"><ele>222.66666666666669</ele><time>2026-04-18T10:35:51.934Z</time></trkpt><trkpt lat="45.889612" lon="10.1996717"><ele>223.33333333333334</ele><time>2026-04-18T10:35:52.935Z</time></trkpt><trkpt lat="45.8897935" lon="10.1997944"><ele>224.0</ele><time>2026-04-18T10:35:53.936Z</time></trkpt><trkpt lat="45.8899781" lon="10.1999301"><ele>223.66666666666669</ele><time>2026-04-18T10:35:54.934Z</time></trkpt><trkpt lat="45.890172" lon="10.2000719"><ele>223.33333333333331</ele><time>2026-04-18T10:35:55.935Z</time></trkpt><trkpt lat="45.8903683" lon="10.2002221"><ele>223.0</ele><time>2026-04-18T10:35:56.935Z</time></trkpt><trkpt lat="45.8905615" lon="10.2003899"><ele>223.0</ele><time>2026-04-18T10:35:57.935Z</time></trkpt><trkpt lat="45.8907528" lon="10.2005679"><ele>223.0</ele><time>2026-04-18T10:35:58.935Z</time></trkpt><trkpt lat="45.8909499" lon="10.2007505"><ele>222.5</ele><time>2026-04-18T10:35:59.934Z</time></trkpt><trkpt lat="45.8911376" lon="10.2009335"><ele>222.0</ele><time>2026-04-18T10:36:00.934Z</time></trkpt><trkpt lat="45.8913265" lon="10.2011297"><ele>222.0</ele><time>2026-04-18T10:36:01.934Z</time></trkpt><trkpt lat="45.8915098" lon="10.201329"><ele>222.0</ele><time>2026-04-18T10:36:02.935Z</time></trkpt><trkpt lat="45.891695" lon="10.2015433"><ele>224.5</ele><time>2026-04-18T10:36:03.934Z</time></trkpt><trkpt lat="45.8918854" lon="10.2017705"><ele>227.0</ele><time>2026-04-18T10:36:04.934Z</time></trkpt><trkpt lat="45.8920805" lon="10.2020068"><ele>227.0</ele><time>2026-04-18T10:36:05.934Z</time></trkpt><trkpt lat="45.8922831" lon="10.2022503"><ele>227.0</ele><time>2026-04-18T10:36:06.935Z</time></trkpt><trkpt lat="45.8925172" lon="10.2025408"><ele>230.0</ele><time>2026-04-18T10:36:07.934Z</time></trkpt><trkpt lat="45.8927553" lon="10.2028405"><ele>233.0</ele><time>2026-04-18T10:36:08.935Z</time></trkpt><trkpt lat="45.8929748" lon="10.2031352"><ele>229.0</ele><time>2026-04-18T10:36:09.934Z</time></trkpt><trkpt lat="45.8931929" lon="10.2034154"><ele>225.0</ele><time>2026-04-18T10:36:10.935Z</time></trkpt><trkpt lat="45.8933983" lon="10.2036842"><ele>224.5</ele><time>2026-04-18T10:36:11.935Z</time></trkpt><trkpt lat="45.8936" lon="10.2039382"><ele>224.0</ele><time>2026-04-18T10:36:12.934Z</time></trkpt><trkpt lat="45.893791" lon="10.2041854"><ele>224.0</ele><time>2026-04-18T10:36:13.935Z</time></trkpt><trkpt lat="45.8939886" lon="10.2044277"><ele>224.0</ele><time>2026-04-18T10:36:14.934Z</time></trkpt><trkpt lat="45.8941767" lon="10.2046757"><ele>224.0</ele><time>2026-04-18T10:36:15.935Z</time></trkpt><trkpt lat="45.8943679" lon="10.2049204"><ele>224.0</ele><time>2026-04-18T10:36:16.935Z</time></trkpt><trkpt lat="45.8945603" lon="10.2051705"><ele>224.0</ele><time>2026-04-18T10:36:17.934Z</time></trkpt><trkpt lat="45.8947445" lon="10.2054138"><ele>224.0</ele><time>2026-04-18T10:36:18.934Z</time></trkpt><trkpt lat="45.8949371" lon="10.2056571"><ele>230.5</ele><time>2026-04-18T10:36:19.935Z</time></trkpt><trkpt lat="45.8951303" lon="10.2059024"><ele>237.0</ele><time>2026-04-18T10:36:20.934Z</time></trkpt><trkpt lat="45.8953197" lon="10.2061548"><ele>237.0</ele><time>2026-04-18T10:36:21.934Z</time></trkpt><trkpt lat="45.8955108" lon="10.2064148"><ele>237.0</ele><time>2026-04-18T10:36:22.934Z</time></trkpt><trkpt lat="45.8956958" lon="10.2066726"><ele>243.0</ele><time>2026-04-18T10:36:23.935Z</time></trkpt><trkpt lat="45.8959113" lon="10.2069514"><ele>249.0</ele><time>2026-04-18T10:36:24.934Z</time></trkpt><trkpt lat="45.8961193" lon="10.2072502"><ele>241.0</ele><time>2026-04-18T10:36:25.934Z</time></trkpt><trkpt lat="45.8963221" lon="10.2075946"><ele>233.0</ele><time>2026-04-18T10:36:26.935Z</time></trkpt><trkpt lat="45.8965315" lon="10.2079305"><ele>229.5</ele><time>2026-04-18T10:36:27.934Z</time></trkpt><trkpt lat="45.8967353" lon="10.2082704"><ele>226.0</ele><time>2026-04-18T10:36:28.936Z</time></trkpt><trkpt lat="45.8969465" lon="10.2086058"><ele>228.5</ele><time>2026-04-18T10:36:29.934Z</time></trkpt><trkpt lat="45.8971422" lon="10.208943"><ele>231.0</ele><time>2026-04-18T10:36:30.935Z</time></trkpt><trkpt lat="45.8973462" lon="10.2092779"><ele>231.0</ele><time>2026-04-18T10:36:31.935Z</time></trkpt><trkpt lat="45.8975438" lon="10.2095891"><ele>231.0</ele><time>2026-04-18T10:36:32.935Z</time></trkpt><trkpt lat="45.8977531" lon="10.2099159"><ele>228.0</ele><time>2026-04-18T10:36:33.935Z</time></trkpt><trkpt lat="45.8979579" lon="10.2102382"><ele>225.0</ele><time>2026-04-18T10:36:34.935Z</time></trkpt><trkpt lat="45.8981844" lon="10.2106082"><ele>226.0</ele><time>2026-04-18T10:36:35.935Z</time></trkpt><trkpt lat="45.8984098" lon="10.2109693"><ele>227.0</ele><time>2026-04-18T10:36:36.935Z</time></trkpt><trkpt lat="45.8986317" lon="10.2113486"><ele>227.0</ele><time>2026-04-18T10:36:37.935Z</time></trkpt><trkpt lat="45.8988552" lon="10.2117084"><ele>227.0</ele><time>2026-04-18T10:36:38.934Z</time></trkpt><trkpt lat="45.8990718" lon="10.2120752"><ele>227.0</ele><time>2026-04-18T10:36:39.935Z</time></trkpt><trkpt lat="45.8992827" lon="10.2124192"><ele>227.0</ele><time>2026-04-18T10:36:40.935Z</time></trkpt><trkpt lat="45.8994901" lon="10.2127609"><ele>227.0</ele><time>2026-04-18T10:36:41.935Z</time></trkpt><trkpt lat="45.8996965" lon="10.2130851"><ele>227.0</ele><time>2026-04-18T10:36:42.935Z</time></trkpt><trkpt lat="45.899901" lon="10.2134264"><ele>227.5</ele><time>2026-04-18T10:36:43.934Z</time></trkpt><trkpt lat="45.900088" lon="10.2137549"><ele>228.0</ele><time>2026-04-18T10:36:44.936Z</time></trkpt><trkpt lat="45.9002943" lon="10.2140771"><ele>228.0</ele><time>2026-04-18T10:36:45.934Z</time></trkpt><trkpt lat="45.9004865" lon="10.214385"><ele>228.0</ele><time>2026-04-18T10:36:46.934Z</time></trkpt><trkpt lat="45.900673" lon="10.2146922"><ele>228.0</ele><time>2026-04-18T10:36:47.934Z</time></trkpt><trkpt lat="45.9008449" lon="10.2149892"><ele>228.0</ele><time>2026-04-18T10:36:48.935Z</time></trkpt><trkpt lat="45.9010281" lon="10.2152673"><ele>228.0</ele><time>2026-04-18T10:36:49.935Z</time></trkpt><trkpt lat="45.9012049" lon="10.215545"><ele>228.0</ele><time>2026-04-18T10:36:50.935Z</time></trkpt><trkpt lat="45.9013264" lon="10.215813"><ele>229.0</ele><time>2026-04-18T10:36:51.935Z</time></trkpt><trkpt lat="45.9014844" lon="10.2160518"><ele>230.0</ele><time>2026-04-18T10:36:52.934Z</time></trkpt><trkpt lat="45.9016386" lon="10.2163049"><ele>229.0</ele><time>2026-04-18T10:36:53.934Z</time></trkpt><trkpt lat="45.9018163" lon="10.2165349"><ele>228.0</ele><time>2026-04-18T10:36:54.936Z</time></trkpt><trkpt lat="45.9019741" lon="10.2167993"><ele>228.0</ele><time>2026-04-18T10:36:55.935Z</time></trkpt><trkpt lat="45.9021389" lon="10.2171005"><ele>228.0</ele><time>2026-04-18T10:36:56.935Z</time></trkpt><trkpt lat="45.9022837" lon="10.2173568"><ele>229.0</ele><time>2026-04-18T10:36:57.934Z</time></trkpt><trkpt lat="45.9024703" lon="10.2176316"><ele>230.0</ele><time>2026-04-18T10:36:58.934Z</time></trkpt><trkpt lat="45.9026392" lon="10.2179014"><ele>232.0</ele><time>2026-04-18T10:36:59.934Z</time></trkpt><trkpt lat="45.9028215" lon="10.2181768"><ele>234.0</ele><time>2026-04-18T10:37:00.936Z</time></trkpt><trkpt lat="45.902983" lon="10.2184418"><ele>234.0</ele><time>2026-04-18T10:37:01.935Z</time></trkpt><trkpt lat="45.9031678" lon="10.2186883"><ele>234.0</ele><time>2026-04-18T10:37:02.935Z</time></trkpt><trkpt lat="45.9032623" lon="10.2189312"><ele>234.0</ele><time>2026-04-18T10:37:03.935Z</time></trkpt><trkpt lat="45.9034021" lon="10.2191624"><ele>233.0</ele><time>2026-04-18T10:37:04.936Z</time></trkpt><trkpt lat="45.9035647" lon="10.219409"><ele>232.0</ele><time>2026-04-18T10:37:05.935Z</time></trkpt><trkpt lat="45.9037213" lon="10.2196336"><ele>232.0</ele><time>2026-04-18T10:37:06.935Z</time></trkpt><trkpt lat="45.903847" lon="10.2198473"><ele>232.0</ele><time>2026-04-18T10:37:07.934Z</time></trkpt><trkpt lat="45.9040108" lon="10.2200732"><ele>232.0</ele><time>2026-04-18T10:37:08.935Z</time></trkpt><trkpt lat="45.9041739" lon="10.2203648"><ele>233.5</ele><time>2026-04-18T10:37:09.935Z</time></trkpt><trkpt lat="45.9043121" lon="10.220613"><ele>235.0</ele><time>2026-04-18T10:37:10.934Z</time></trkpt><trkpt lat="45.9044744" lon="10.2209025"><ele>235.0</ele><time>2026-04-18T10:37:11.934Z</time></trkpt><trkpt lat="45.9047837" lon="10.2213625"><ele>235.0</ele><time>2026-04-18T10:37:13.648Z</time></trkpt><trkpt lat="45.9049746" lon="10.2217143"><ele>234.33333333333331</ele><time>2026-04-18T10:37:14.935Z</time></trkpt><trkpt lat="45.9051388" lon="10.2219831"><ele>233.66666666666669</ele><time>2026-04-18T10:37:15.934Z</time></trkpt><trkpt lat="45.9052757" lon="10.2221886"><ele>233.0</ele><time>2026-04-18T10:37:16.934Z</time></trkpt><trkpt lat="45.9054381" lon="10.2224176"><ele>233.0</ele><time>2026-04-18T10:37:17.935Z</time></trkpt><trkpt lat="45.9055772" lon="10.2226434"><ele>233.0</ele><time>2026-04-18T10:37:18.935Z</time></trkpt><trkpt lat="45.9057372" lon="10.2228325"><ele>233.0</ele><time>2026-04-18T10:37:19.934Z</time></trkpt><trkpt lat="45.9058963" lon="10.2230326"><ele>233.0</ele><time>2026-04-18T10:37:20.934Z</time></trkpt><trkpt lat="45.9060349" lon="10.2231994"><ele>233.0</ele><time>2026-04-18T10:37:21.935Z</time></trkpt><trkpt lat="45.9061565" lon="10.2233367"><ele>233.0</ele><time>2026-04-18T10:37:22.935Z</time></trkpt><trkpt lat="45.9062874" lon="10.2234855"><ele>233.0</ele><time>2026-04-18T10:37:23.934Z</time></trkpt><trkpt lat="45.9064338" lon="10.2236135"><ele>233.0</ele><time>2026-04-18T10:37:24.936Z</time></trkpt><trkpt lat="45.9066151" lon="10.2237812"><ele>233.0</ele><time>2026-04-18T10:37:25.935Z</time></trkpt><trkpt lat="45.9067885" lon="10.223964"><ele>234.0</ele><time>2026-04-18T10:37:26.934Z</time></trkpt><trkpt lat="45.9070122" lon="10.2242036"><ele>235.0</ele><time>2026-04-18T10:37:27.934Z</time></trkpt><trkpt lat="45.9072202" lon="10.2244136"><ele>235.0</ele><time>2026-04-18T10:37:28.935Z</time></trkpt><trkpt lat="45.9074657" lon="10.2246568"><ele>235.0</ele><time>2026-04-18T10:37:29.935Z</time></trkpt><trkpt lat="45.9077504" lon="10.2249623"><ele>235.0</ele><time>2026-04-18T10:37:30.935Z</time></trkpt><trkpt lat="45.9080296" lon="10.2252596"><ele>235.0</ele><time>2026-04-18T10:37:31.935Z</time></trkpt><trkpt lat="45.9083164" lon="10.2255762"><ele>236.0</ele><time>2026-04-18T10:37:32.934Z</time></trkpt><trkpt lat="45.9086169" lon="10.2258943"><ele>237.0</ele><time>2026-04-18T10:37:33.935Z</time></trkpt><trkpt lat="45.9089202" lon="10.2262116"><ele>236.5</ele><time>2026-04-18T10:37:34.935Z</time></trkpt><trkpt lat="45.9092357" lon="10.2265234"><ele>236.0</ele><time>2026-04-18T10:37:35.935Z</time></trkpt><trkpt lat="45.9095476" lon="10.2268451"><ele>236.0</ele><time>2026-04-18T10:37:36.935Z</time></trkpt><trkpt lat="45.9098621" lon="10.2271687"><ele>236.0</ele><time>2026-04-18T10:37:37.935Z</time></trkpt><trkpt lat="45.9101595" lon="10.2274732"><ele>236.0</ele><time>2026-04-18T10:37:38.935Z</time></trkpt><trkpt lat="45.9104465" lon="10.2277743"><ele>236.0</ele><time>2026-04-18T10:37:39.936Z</time></trkpt><trkpt lat="45.9107226" lon="10.2280685"><ele>237.0</ele><time>2026-04-18T10:37:40.934Z</time></trkpt><trkpt lat="45.9109955" lon="10.228345"><ele>238.0</ele><time>2026-04-18T10:37:41.934Z</time></trkpt><trkpt lat="45.9112627" lon="10.2286207"><ele>238.0</ele><time>2026-04-18T10:37:42.934Z</time></trkpt><trkpt lat="45.9115266" lon="10.2288968"><ele>238.0</ele><time>2026-04-18T10:37:43.935Z</time></trkpt><trkpt lat="45.9117811" lon="10.2291595"><ele>237.5</ele><time>2026-04-18T10:37:44.935Z</time></trkpt><trkpt lat="45.9120294" lon="10.2294157"><ele>237.0</ele><time>2026-04-18T10:37:45.935Z</time></trkpt><trkpt lat="45.9122721" lon="10.229671"><ele>237.5</ele><time>2026-04-18T10:37:46.934Z</time></trkpt><trkpt lat="45.9125148" lon="10.2299216"><ele>238.0</ele><time>2026-04-18T10:37:47.934Z</time></trkpt><trkpt lat="45.9127601" lon="10.2301774"><ele>238.0</ele><time>2026-04-18T10:37:48.934Z</time></trkpt><trkpt lat="45.9130034" lon="10.2304291"><ele>238.0</ele><time>2026-04-18T10:37:49.935Z</time></trkpt><trkpt lat="45.9132351" lon="10.2306796"><ele>239.0</ele><time>2026-04-18T10:37:50.935Z</time></trkpt><trkpt lat="45.9134601" lon="10.2309179"><ele>240.0</ele><time>2026-04-18T10:37:51.935Z</time></trkpt><trkpt lat="45.9136823" lon="10.2311507"><ele>240.0</ele><time>2026-04-18T10:37:52.934Z</time></trkpt><trkpt lat="45.9139008" lon="10.2313671"><ele>240.0</ele><time>2026-04-18T10:37:53.935Z</time></trkpt><trkpt lat="45.9141096" lon="10.2315811"><ele>240.5</ele><time>2026-04-18T10:37:54.935Z</time></trkpt><trkpt lat="45.9143198" lon="10.2317976"><ele>241.0</ele><time>2026-04-18T10:37:55.934Z</time></trkpt><trkpt lat="45.9145402" lon="10.2320114"><ele>241.0</ele><time>2026-04-18T10:37:56.935Z</time></trkpt><trkpt lat="45.9147724" lon="10.2322422"><ele>241.0</ele><time>2026-04-18T10:37:57.934Z</time></trkpt><trkpt lat="45.9150111" lon="10.2324888"><ele>241.0</ele><time>2026-04-18T10:37:58.935Z</time></trkpt><trkpt lat="45.9152564" lon="10.2327431"><ele>241.0</ele><time>2026-04-18T10:37:59.935Z</time></trkpt><trkpt lat="45.9155088" lon="10.2330101"><ele>241.5</ele><time>2026-04-18T10:38:00.935Z</time></trkpt><trkpt lat="45.9157747" lon="10.2332894"><ele>242.0</ele><time>2026-04-18T10:38:01.935Z</time></trkpt><trkpt lat="45.9160386" lon="10.2335693"><ele>242.0</ele><time>2026-04-18T10:38:02.934Z</time></trkpt><trkpt lat="45.9163081" lon="10.2338468"><ele>242.0</ele><time>2026-04-18T10:38:03.934Z</time></trkpt><trkpt lat="45.916578" lon="10.2341299"><ele>241.5</ele><time>2026-04-18T10:38:04.934Z</time></trkpt><trkpt lat="45.9168559" lon="10.2344133"><ele>241.0</ele><time>2026-04-18T10:38:05.934Z</time></trkpt><trkpt lat="45.9171354" lon="10.2347035"><ele>242.0</ele><time>2026-04-18T10:38:06.934Z</time></trkpt><trkpt lat="45.9174148" lon="10.2349918"><ele>243.0</ele><time>2026-04-18T10:38:07.935Z</time></trkpt><trkpt lat="45.9177007" lon="10.2352719"><ele>243.5</ele><time>2026-04-18T10:38:08.935Z</time></trkpt><trkpt lat="45.9179777" lon="10.2355623"><ele>244.0</ele><time>2026-04-18T10:38:09.934Z</time></trkpt><trkpt lat="45.9182581" lon="10.235849"><ele>244.5</ele><time>2026-04-18T10:38:10.935Z</time></trkpt><trkpt lat="45.9185381" lon="10.2361398"><ele>245.0</ele><time>2026-04-18T10:38:11.934Z</time></trkpt><trkpt lat="45.9188128" lon="10.2364191"><ele>245.5</ele><time>2026-04-18T10:38:12.934Z</time></trkpt><trkpt lat="45.9190804" lon="10.2367024"><ele>246.0</ele><time>2026-04-18T10:38:13.934Z</time></trkpt><trkpt lat="45.9193418" lon="10.2369754"><ele>246.5</ele><time>2026-04-18T10:38:14.935Z</time></trkpt><trkpt lat="45.9196007" lon="10.2372471"><ele>247.0</ele><time>2026-04-18T10:38:15.935Z</time></trkpt><trkpt lat="45.9198543" lon="10.2375103"><ele>247.5</ele><time>2026-04-18T10:38:16.935Z</time></trkpt><trkpt lat="45.9201046" lon="10.2377562"><ele>248.0</ele><time>2026-04-18T10:38:17.934Z</time></trkpt><trkpt lat="45.9203473" lon="10.2380065"><ele>249.0</ele><time>2026-04-18T10:38:18.935Z</time></trkpt><trkpt lat="45.920555" lon="10.2382138"><ele>250.0</ele><time>2026-04-18T10:38:19.934Z</time></trkpt><trkpt lat="45.920768" lon="10.2384214"><ele>249.0</ele><time>2026-04-18T10:38:20.934Z</time></trkpt><trkpt lat="45.9209771" lon="10.2386295"><ele>248.0</ele><time>2026-04-18T10:38:21.935Z</time></trkpt><trkpt lat="45.9211978" lon="10.2388414"><ele>248.5</ele><time>2026-04-18T10:38:22.935Z</time></trkpt><trkpt lat="45.9214303" lon="10.2390583"><ele>249.0</ele><time>2026-04-18T10:38:23.935Z</time></trkpt><trkpt lat="45.9216713" lon="10.2393102"><ele>248.0</ele><time>2026-04-18T10:38:24.935Z</time></trkpt><trkpt lat="45.9219124" lon="10.2395505"><ele>247.0</ele><time>2026-04-18T10:38:25.934Z</time></trkpt><trkpt lat="45.9221699" lon="10.2397859"><ele>248.0</ele><time>2026-04-18T10:38:26.934Z</time></trkpt><trkpt lat="45.9224213" lon="10.2400239"><ele>249.0</ele><time>2026-04-18T10:38:27.934Z</time></trkpt><trkpt lat="45.9226982" lon="10.240264"><ele>249.5</ele><time>2026-04-18T10:38:28.935Z</time></trkpt><trkpt lat="45.9230045" lon="10.2404906"><ele>250.0</ele><time>2026-04-18T10:38:29.934Z</time></trkpt><trkpt lat="45.9232946" lon="10.2407288"><ele>250.0</ele><time>2026-04-18T10:38:30.935Z</time></trkpt><trkpt lat="45.9235878" lon="10.2409621"><ele>250.0</ele><time>2026-04-18T10:38:31.935Z</time></trkpt><trkpt lat="45.9238889" lon="10.241214"><ele>250.0</ele><time>2026-04-18T10:38:32.936Z</time></trkpt><trkpt lat="45.9241897" lon="10.2414585"><ele>250.0</ele><time>2026-04-18T10:38:33.935Z</time></trkpt><trkpt lat="45.9244856" lon="10.2416991"><ele>250.5</ele><time>2026-04-18T10:38:34.935Z</time></trkpt><trkpt lat="45.9247868" lon="10.2419403"><ele>251.0</ele><time>2026-04-18T10:38:35.935Z</time></trkpt><trkpt lat="45.9250885" lon="10.2421793"><ele>252.0</ele><time>2026-04-18T10:38:36.934Z</time></trkpt><trkpt lat="45.925386" lon="10.2424199"><ele>253.0</ele><time>2026-04-18T10:38:37.935Z</time></trkpt><trkpt lat="45.9256849" lon="10.2426553"><ele>253.0</ele><time>2026-04-18T10:38:38.935Z</time></trkpt><trkpt lat="45.9259811" lon="10.2428962"><ele>253.0</ele><time>2026-04-18T10:38:39.934Z</time></trkpt><trkpt lat="45.9262684" lon="10.2431324"><ele>253.5</ele><time>2026-04-18T10:38:40.935Z</time></trkpt><trkpt lat="45.9265536" lon="10.2433652"><ele>254.0</ele><time>2026-04-18T10:38:41.935Z</time></trkpt><trkpt lat="45.9268372" lon="10.2435931"><ele>254.0</ele><time>2026-04-18T10:38:42.935Z</time></trkpt><trkpt lat="45.9271182" lon="10.2438251"><ele>254.0</ele><time>2026-04-18T10:38:43.935Z</time></trkpt><trkpt lat="45.9274001" lon="10.244075"><ele>254.0</ele><time>2026-04-18T10:38:44.934Z</time></trkpt><trkpt lat="45.9276618" lon="10.2442762"><ele>254.0</ele><time>2026-04-18T10:38:45.935Z</time></trkpt><trkpt lat="45.9279074" lon="10.2445055"><ele>254.0</ele><time>2026-04-18T10:38:46.935Z</time></trkpt><trkpt lat="45.928154" lon="10.2447521"><ele>254.0</ele><time>2026-04-18T10:38:47.935Z</time></trkpt><trkpt lat="45.9283975" lon="10.2450174"><ele>255.0</ele><time>2026-04-18T10:38:48.934Z</time></trkpt><trkpt lat="45.9286343" lon="10.2452941"><ele>256.0</ele><time>2026-04-18T10:38:49.935Z</time></trkpt><trkpt lat="45.9288484" lon="10.2456217"><ele>255.5</ele><time>2026-04-18T10:38:50.934Z</time></trkpt><trkpt lat="45.9290757" lon="10.245926"><ele>255.0</ele><time>2026-04-18T10:38:51.935Z</time></trkpt><trkpt lat="45.9292647" lon="10.2463283"><ele>255.5</ele><time>2026-04-18T10:38:52.934Z</time></trkpt><trkpt lat="45.9294694" lon="10.2466926"><ele>256.0</ele><time>2026-04-18T10:38:53.935Z</time></trkpt><trkpt lat="45.9296539" lon="10.2470681"><ele>256.5</ele><time>2026-04-18T10:38:54.935Z</time></trkpt><trkpt lat="45.9298223" lon="10.2474418"><ele>257.0</ele><time>2026-04-18T10:38:55.934Z</time></trkpt><trkpt lat="45.9300019" lon="10.247826"><ele>256.5</ele><time>2026-04-18T10:38:56.935Z</time></trkpt><trkpt lat="45.9301343" lon="10.2481616"><ele>256.0</ele><time>2026-04-18T10:38:57.935Z</time></trkpt><trkpt lat="45.9302759" lon="10.2484721"><ele>256.0</ele><time>2026-04-18T10:38:58.935Z</time></trkpt><trkpt lat="45.9303817" lon="10.2487826"><ele>256.0</ele><time>2026-04-18T10:38:59.934Z</time></trkpt><trkpt lat="45.9305065" lon="10.2490783"><ele>256.5</ele><time>2026-04-18T10:39:00.935Z</time></trkpt><trkpt lat="45.9306238" lon="10.2493695"><ele>257.0</ele><time>2026-04-18T10:39:01.934Z</time></trkpt><trkpt lat="45.9307435" lon="10.2496652"><ele>256.6666666666667</ele><time>2026-04-18T10:39:02.934Z</time></trkpt><trkpt lat="45.9308403" lon="10.2499196"><ele>256.3333333333333</ele><time>2026-04-18T10:39:03.934Z</time></trkpt><trkpt lat="45.9309718" lon="10.2502129"><ele>256.0</ele><time>2026-04-18T10:39:04.934Z</time></trkpt><trkpt lat="45.9311027" lon="10.2504988"><ele>255.0</ele><time>2026-04-18T10:39:05.934Z</time></trkpt><trkpt lat="45.9312327" lon="10.2508118"><ele>254.0</ele><time>2026-04-18T10:39:06.934Z</time></trkpt><trkpt lat="45.9313385" lon="10.251157"><ele>254.5</ele><time>2026-04-18T10:39:07.936Z</time></trkpt><trkpt lat="45.9314825" lon="10.2515245"><ele>255.0</ele><time>2026-04-18T10:39:08.934Z</time></trkpt><trkpt lat="45.9316321" lon="10.2518851"><ele>252.5</ele><time>2026-04-18T10:39:09.934Z</time></trkpt><trkpt lat="45.9317773" lon="10.2522404"><ele>250.0</ele><time>2026-04-18T10:39:10.935Z</time></trkpt><trkpt lat="45.9319091" lon="10.2525582"><ele>250.0</ele><time>2026-04-18T10:39:11.936Z</time></trkpt><trkpt lat="45.9320297" lon="10.2528608"><ele>250.0</ele><time>2026-04-18T10:39:12.935Z</time></trkpt><trkpt lat="45.9321623" lon="10.2531533"><ele>252.0</ele><time>2026-04-18T10:39:13.934Z</time></trkpt><trkpt lat="45.9322839" lon="10.2534511"><ele>254.0</ele><time>2026-04-18T10:39:14.934Z</time></trkpt><trkpt lat="45.9324183" lon="10.253781"><ele>253.5</ele><time>2026-04-18T10:39:15.934Z</time></trkpt><trkpt lat="45.9325401" lon="10.2540956"><ele>253.0</ele><time>2026-04-18T10:39:16.935Z</time></trkpt><trkpt lat="45.9326783" lon="10.2544353"><ele>253.0</ele><time>2026-04-18T10:39:17.935Z</time></trkpt><trkpt lat="45.9328146" lon="10.2547559"><ele>253.0</ele><time>2026-04-18T10:39:18.934Z</time></trkpt><trkpt lat="45.9329419" lon="10.255069"><ele>253.0</ele><time>2026-04-18T10:39:19.934Z</time></trkpt><trkpt lat="45.9330831" lon="10.2554091"><ele>253.0</ele><time>2026-04-18T10:39:20.935Z</time></trkpt><trkpt lat="45.9332189" lon="10.2557627"><ele>252.5</ele><time>2026-04-18T10:39:21.934Z</time></trkpt><trkpt lat="45.933356" lon="10.2561619"><ele>252.0</ele><time>2026-04-18T10:39:22.935Z</time></trkpt><trkpt lat="45.9334808" lon="10.2565491"><ele>253.5</ele><time>2026-04-18T10:39:23.935Z</time></trkpt><trkpt lat="45.9336114" lon="10.2569515"><ele>255.0</ele><time>2026-04-18T10:39:24.934Z</time></trkpt><trkpt lat="45.9337313" lon="10.2573436"><ele>255.0</ele><time>2026-04-18T10:39:25.934Z</time></trkpt><trkpt lat="45.9338441" lon="10.2577257"><ele>255.0</ele><time>2026-04-18T10:39:26.934Z</time></trkpt><trkpt lat="45.9339489" lon="10.2580944"><ele>254.5</ele><time>2026-04-18T10:39:27.935Z</time></trkpt><trkpt lat="45.9340605" lon="10.2584663"><ele>254.0</ele><time>2026-04-18T10:39:28.936Z</time></trkpt><trkpt lat="45.9341652" lon="10.2588256"><ele>254.0</ele><time>2026-04-18T10:39:29.934Z</time></trkpt><trkpt lat="45.9342671" lon="10.2591736"><ele>254.0</ele><time>2026-04-18T10:39:30.934Z</time></trkpt><trkpt lat="45.9343675" lon="10.2595239"><ele>255.0</ele><time>2026-04-18T10:39:31.935Z</time></trkpt><trkpt lat="45.934464" lon="10.2598524"><ele>256.0</ele><time>2026-04-18T10:39:32.934Z</time></trkpt><trkpt lat="45.9345719" lon="10.2601751"><ele>256.0</ele><time>2026-04-18T10:39:33.934Z</time></trkpt><trkpt lat="45.9346741" lon="10.2605088"><ele>256.0</ele><time>2026-04-18T10:39:34.934Z</time></trkpt><trkpt lat="45.9347688" lon="10.2608261"><ele>256.0</ele><time>2026-04-18T10:39:35.935Z</time></trkpt><trkpt lat="45.934855" lon="10.2611304"><ele>256.0</ele><time>2026-04-18T10:39:36.934Z</time></trkpt><trkpt lat="45.9349446" lon="10.2614226"><ele>256.0</ele><time>2026-04-18T10:39:37.934Z</time></trkpt><trkpt lat="45.9350227" lon="10.261694"><ele>256.0</ele><time>2026-04-18T10:39:38.935Z</time></trkpt><trkpt lat="45.9351085" lon="10.2619847"><ele>256.0</ele><time>2026-04-18T10:39:39.934Z</time></trkpt><trkpt lat="45.9351811" lon="10.2622529"><ele>256.66666666666663</ele><time>2026-04-18T10:39:40.935Z</time></trkpt><trkpt lat="45.9352686" lon="10.2625326"><ele>257.3333333333333</ele><time>2026-04-18T10:39:41.935Z</time></trkpt><trkpt lat="45.9353533" lon="10.2628083"><ele>258.0</ele><time>2026-04-18T10:39:42.935Z</time></trkpt><trkpt lat="45.935426" lon="10.2630581"><ele>257.3333333333333</ele><time>2026-04-18T10:39:43.935Z</time></trkpt><trkpt lat="45.9354985" lon="10.2633104"><ele>256.66666666666663</ele><time>2026-04-18T10:39:44.934Z</time></trkpt><trkpt lat="45.9355685" lon="10.2635621"><ele>256.0</ele><time>2026-04-18T10:39:45.935Z</time></trkpt><trkpt lat="45.935631" lon="10.2638067"><ele>257.0</ele><time>2026-04-18T10:39:46.935Z</time></trkpt><trkpt lat="45.9356987" lon="10.2640517"><ele>258.0</ele><time>2026-04-18T10:39:47.935Z</time></trkpt><trkpt lat="45.935774" lon="10.2642862"><ele>259.0</ele><time>2026-04-18T10:39:48.934Z</time></trkpt><trkpt lat="45.9358401" lon="10.2645079"><ele>259.0</ele><time>2026-04-18T10:39:49.934Z</time></trkpt><trkpt lat="45.9359026" lon="10.2647133"><ele>259.0</ele><time>2026-04-18T10:39:50.936Z</time></trkpt><trkpt lat="45.9359603" lon="10.2649073"><ele>259.0</ele><time>2026-04-18T10:39:51.935Z</time></trkpt><trkpt lat="45.9360056" lon="10.265094"><ele>259.0</ele><time>2026-04-18T10:39:52.935Z</time></trkpt><trkpt lat="45.9360332" lon="10.2652853"><ele>259.0</ele><time>2026-04-18T10:39:53.935Z</time></trkpt><trkpt lat="45.9360531" lon="10.2654888"><ele>259.0</ele><time>2026-04-18T10:39:54.934Z</time></trkpt><trkpt lat="45.9360611" lon="10.2657032"><ele>259.0</ele><time>2026-04-18T10:39:55.935Z</time></trkpt><trkpt lat="45.9360576" lon="10.2659192"><ele>259.0</ele><time>2026-04-18T10:39:56.935Z</time></trkpt><trkpt lat="45.936044" lon="10.2661323"><ele>259.25</ele><time>2026-04-18T10:39:57.934Z</time></trkpt><trkpt lat="45.9360262" lon="10.2663269"><ele>259.5</ele><time>2026-04-18T10:39:58.934Z</time></trkpt><trkpt lat="45.936004" lon="10.2665175"><ele>259.75</ele><time>2026-04-18T10:39:59.934Z</time></trkpt><trkpt lat="45.9359861" lon="10.2667169"><ele>260.0</ele><time>2026-04-18T10:40:00.936Z</time></trkpt><trkpt lat="45.9359619" lon="10.2669032"><ele>260.25</ele><time>2026-04-18T10:40:01.934Z</time></trkpt><trkpt lat="45.9359485" lon="10.2670987"><ele>260.5</ele><time>2026-04-18T10:40:02.935Z</time></trkpt><trkpt lat="45.9359367" lon="10.2672853"><ele>260.75</ele><time>2026-04-18T10:40:03.934Z</time></trkpt><trkpt lat="45.9359756" lon="10.2674943"><ele>261.0</ele><time>2026-04-18T10:40:04.934Z</time></trkpt><trkpt lat="45.9359939" lon="10.2676823"><ele>261.5</ele><time>2026-04-18T10:40:05.934Z</time></trkpt><trkpt lat="45.9360412" lon="10.2678615"><ele>262.0</ele><time>2026-04-18T10:40:06.934Z</time></trkpt><trkpt lat="45.9360928" lon="10.2680386"><ele>262.5</ele><time>2026-04-18T10:40:07.935Z</time></trkpt><trkpt lat="45.9361649" lon="10.2682131"><ele>263.0</ele><time>2026-04-18T10:40:08.935Z</time></trkpt><trkpt lat="45.9362177" lon="10.2683838"><ele>263.25</ele><time>2026-04-18T10:40:09.934Z</time></trkpt><trkpt lat="45.9363074" lon="10.2685634"><ele>263.5</ele><time>2026-04-18T10:40:10.935Z</time></trkpt><trkpt lat="45.9364256" lon="10.2686679"><ele>263.75</ele><time>2026-04-18T10:40:11.935Z</time></trkpt><trkpt lat="45.9365324" lon="10.2687835"><ele>264.0</ele><time>2026-04-18T10:40:12.934Z</time></trkpt><trkpt lat="45.9366607" lon="10.2688831"><ele>263.6666666666667</ele><time>2026-04-18T10:40:13.935Z</time></trkpt><trkpt lat="45.9367808" lon="10.2689864"><ele>263.33333333333337</ele><time>2026-04-18T10:40:14.935Z</time></trkpt><trkpt lat="45.9369197" lon="10.2690632"><ele>263.0</ele><time>2026-04-18T10:40:15.935Z</time></trkpt><trkpt lat="45.9371125" lon="10.2690898"><ele>263.0</ele><time>2026-04-18T10:40:16.935Z</time></trkpt><trkpt lat="45.9373056" lon="10.2690885"><ele>263.0</ele><time>2026-04-18T10:40:17.935Z</time></trkpt><trkpt lat="45.9374955" lon="10.2691141"><ele>263.0</ele><time>2026-04-18T10:40:18.934Z</time></trkpt><trkpt lat="45.937752" lon="10.2691558"><ele>263.5</ele><time>2026-04-18T10:40:19.935Z</time></trkpt><trkpt lat="45.9379926" lon="10.2691846"><ele>264.0</ele><time>2026-04-18T10:40:20.935Z</time></trkpt><trkpt lat="45.9382437" lon="10.2692185"><ele>265.5</ele><time>2026-04-18T10:40:21.934Z</time></trkpt><trkpt lat="45.9385052" lon="10.2692524"><ele>267.0</ele><time>2026-04-18T10:40:22.935Z</time></trkpt><trkpt lat="45.938763" lon="10.2692809"><ele>267.0</ele><time>2026-04-18T10:40:23.934Z</time></trkpt><trkpt lat="45.9390152" lon="10.269315"><ele>267.0</ele><time>2026-04-18T10:40:24.934Z</time></trkpt><trkpt lat="45.9392507" lon="10.2693415"><ele>265.0</ele><time>2026-04-18T10:40:25.934Z</time></trkpt><trkpt lat="45.9394977" lon="10.2693868"><ele>263.0</ele><time>2026-04-18T10:40:26.936Z</time></trkpt><trkpt lat="45.9397199" lon="10.2694214"><ele>263.0</ele><time>2026-04-18T10:40:27.935Z</time></trkpt><trkpt lat="45.9399378" lon="10.2694339"><ele>263.0</ele><time>2026-04-18T10:40:28.935Z</time></trkpt><trkpt lat="45.9401556" lon="10.2694376"><ele>263.0</ele><time>2026-04-18T10:40:29.935Z</time></trkpt><trkpt lat="45.9403638" lon="10.2693978"><ele>263.0</ele><time>2026-04-18T10:40:30.934Z</time></trkpt><trkpt lat="45.9405581" lon="10.2693713"><ele>263.0</ele><time>2026-04-18T10:40:31.934Z</time></trkpt><trkpt lat="45.9407354" lon="10.2693492"><ele>263.0</ele><time>2026-04-18T10:40:32.934Z</time></trkpt><trkpt lat="45.9409141" lon="10.2693254"><ele>263.33333333333337</ele><time>2026-04-18T10:40:33.935Z</time></trkpt><trkpt lat="45.9410959" lon="10.2693071"><ele>263.6666666666667</ele><time>2026-04-18T10:40:34.934Z</time></trkpt><trkpt lat="45.9412773" lon="10.2692732"><ele>264.0</ele><time>2026-04-18T10:40:35.935Z</time></trkpt><trkpt lat="45.9414442" lon="10.2692437"><ele>264.0</ele><time>2026-04-18T10:40:36.935Z</time></trkpt><trkpt lat="45.9416149" lon="10.2692298"><ele>264.0</ele><time>2026-04-18T10:40:37.934Z</time></trkpt><trkpt lat="45.9417723" lon="10.2692035"><ele>264.0</ele><time>2026-04-18T10:40:38.934Z</time></trkpt><trkpt lat="45.9419209" lon="10.2691731"><ele>264.5</ele><time>2026-04-18T10:40:39.935Z</time></trkpt><trkpt lat="45.94207" lon="10.2691516"><ele>265.0</ele><time>2026-04-18T10:40:40.935Z</time></trkpt><trkpt lat="45.9422063" lon="10.2691297"><ele>265.5</ele><time>2026-04-18T10:40:41.934Z</time></trkpt><trkpt lat="45.9423342" lon="10.2691089"><ele>266.0</ele><time>2026-04-18T10:40:42.935Z</time></trkpt><trkpt lat="45.9424392" lon="10.2690971"><ele>266.0</ele><time>2026-04-18T10:40:43.934Z</time></trkpt><trkpt lat="45.9425454" lon="10.2691201"><ele>266.0</ele><time>2026-04-18T10:40:44.934Z</time></trkpt><trkpt lat="45.9426397" lon="10.2691462"><ele>266.0</ele><time>2026-04-18T10:40:45.935Z</time></trkpt><trkpt lat="45.9427414" lon="10.269186"><ele>266.0</ele><time>2026-04-18T10:40:46.935Z</time></trkpt><trkpt lat="45.9428342" lon="10.2692126"><ele>266.0</ele><time>2026-04-18T10:40:47.935Z</time></trkpt><trkpt lat="45.9429228" lon="10.2692212"><ele>266.0</ele><time>2026-04-18T10:40:48.935Z</time></trkpt><trkpt lat="45.9429813" lon="10.2690883"><ele>266.0</ele><time>2026-04-18T10:40:49.935Z</time></trkpt><trkpt lat="45.9430421" lon="10.2691575"><ele>266.0</ele><time>2026-04-18T10:40:50.935Z</time></trkpt><trkpt lat="45.9430628" lon="10.2690301"><ele>266.0</ele><time>2026-04-18T10:40:51.934Z</time></trkpt><trkpt lat="45.9431535" lon="10.268958"><ele>266.0</ele><time>2026-04-18T10:40:53.934Z</time></trkpt><trkpt lat="45.9432243" lon="10.2688769"><ele>266.0</ele><time>2026-04-18T10:40:54.934Z</time></trkpt><trkpt lat="45.9432864" lon="10.2687708"><ele>266.0</ele><time>2026-04-18T10:40:56.934Z</time></trkpt><trkpt lat="45.9433012" lon="10.2686736"><ele>266.0</ele><time>2026-04-18T10:40:58.935Z</time></trkpt><trkpt lat="45.9433302" lon="10.268572"><ele>266.0</ele><time>2026-04-18T10:41:00.934Z</time></trkpt><trkpt lat="45.9432638" lon="10.2686131"><ele>266.0</ele><time>2026-04-18T10:41:03.935Z</time></trkpt><trkpt lat="45.9432287" lon="10.26869"><ele>266.0</ele><time>2026-04-18T10:41:06.934Z</time></trkpt></trkseg></trk></gpx>